John P. Tully — CG2958 — position and weather

sailwx.info

Track history (hours):
 
Tides and Currents Weather Stations Pressure Air Temp Water Temp Dewpoint Dewpoint Depression Visibility Wind Speed Wind Dir Waves Ship Positions

Oceanographic research ship John P. Tully (Canada)

Detailed information on ship capabilities available from University of Delaware's Ocean Information Center.

Last reported at 2017-Feb-24 16:33 UTC. Time now 2017-Feb-24 17:20 UTC.
Position N 48°57' W 125°50'.

Length 68.9 m; beam 14.5 m; draft 4.5 m.

MMSI: 316114000.

Date/timePositionNaut miles runAvg speedWind from/ knotsBaromVisibWave heightAir tempDewpointWater temp
2017-Feb-24 16:33N 48°57' W 125°50'96384.7
2017-Feb-24 16:19N 48°39' W 123°27'90284.5
2017-Feb-24 16:00N 48°54' W 125°42'4 8.8 100 / 161019.9 4.4-0.0
2017-Feb-24 15:34N 48°52' W 125°37'871745.7
2017-Feb-24 15:31N 48°39' W 123°27'82157.7
2017-Feb-24 15:00N 48°48' W 125°30'4 9.6 100 / 111019.9 3.9 0.5
2017-Feb-24 14:33N 48°46' W 125°24'785711.1
2017-Feb-24 14:33N 48°39' W 123°27'73132.7
2017-Feb-24 14:00N 48°42' W 125°18'3 7.0 110 / 121019.9 3.4 1.5
2017-Feb-24 13:33N 48°41' W 125°14'7010125.6
2017-Feb-24 13:33N 48°39' W 123°27'65117.7
2017-Feb-24 13:00N 48°42' W 125°06'613.4 080 / 131020.1 2.9 1.3
2017-Feb-24 12:33N 48°37' W 125°00'6214802.8
2017-Feb-24 12:33N 48°39' W 123°27'58102.6
2017-Feb-24 12:00N 48°36' W 124°54'715.1 020 / 31020.1 2.8 1.4
2017-Feb-24 11:34N 48°33' W 124°45'5293228.6
2017-Feb-24 11:33N 48°39' W 123°27'4782.1
2017-Feb-24 11:00N 48°30' W 124°36'47107.2 200 / 151019.8 3.1 1.4
2017-Feb-24 10:33N 48°39' W 123°27'436957.0
2017-Feb-24 10:33N 48°29' W 124°30'4 6.7
2017-Feb-24 10:00N 48°30' W 124°24'716.6 200 / 161020.4 3.5 0.9
2017-Feb-24 09:33N 48°26' W 124°15'3520798.4
2017-Feb-24 09:33N 48°39' W 123°27'3053.1
2017-Feb-24 09:00N 48°24' W 124°06'3069.0 210 / 101020.8 5.1-0.8
2017-Feb-24 08:33N 48°39' W 123°27'282011.2
2017-Feb-24 08:33N 48°22' W 124°01'611.0
2017-Feb-24 08:00N 48°18' W 123°54'2863.9 230 / 101021.2 4.8-0.9
2017-Feb-24 07:33N 48°39' W 123°27'254426.8
2017-Feb-24 07:33N 48°19' W 123°48'4 6.8
2017-Feb-24 07:00N 48°18' W 123°42'2354.1 270 / 141022.1 5.2-0.4
2017-Feb-24 06:34N 48°39' W 123°27'231464.9
2017-Feb-24 06:33N 48°17' W 123°33'611.1
2017-Feb-24 06:00N 48°18' W 123°24'2148.9 260 / 71022.4 5.0 0.9
2017-Feb-24 05:33N 48°39' W 123°27'174604.0
2017-Feb-24 05:33N 48°23' W 123°23'712.7
2017-Feb-24 05:00N 48°24' W 123°12'4 9.8 200 / 61022.4 5.4 0.2
2017-Feb-24 04:33N 48°28' W 123°12'1510578.0
2017-Feb-24 04:33N 48°39' W 123°27'1118.6
2017-Feb-24 04:00N 48°36' W 123°12'1124.4 200 / 91022.2 5.3-0.8
2017-Feb-24 03:33N 48°39' W 123°27'85511.9
2017-Feb-24 03:33N 48°41' W 123°16'5 9.5
2017-Feb-24 03:00N 48°42' W 123°24'3 7.3 200 / 91023.4 4.9 0.3
2017-Feb-24 02:34N 48°42' W 123°29'54875.2
2017-Feb-24 02:33N 48°45' W 123°22'610.8
2017-Feb-24 02:00N 48°42' W 123°30'1533.9 150 / 31023.6 5.7-0.1
2017-Feb-24 01:33N 48°55' W 123°18'1614775.7
2017-Feb-24 01:33N 48°39' W 123°27'3 5.9
2017-Feb-24 01:00N 48°42' W 123°30'2249.3 140 / 31023.9 6.8-0.0
2017-Feb-24 00:33N 49°03' W 123°25'2460.7
2017-Feb-24 00:09N 48°39' W 123°27'320.7
2017-Feb-24 00:00N 48°42' W 123°30'3377.2 150 / 31024.1 6.2-0.3
2017-Feb-23 23:34N 49°15' W 123°21'36100.4
2017-Feb-23 23:12N 48°39' W 123°27'316.1
2017-Feb-23 23:00N 48°42' W 123°30'4091.2 120 / 61024.5 6.2-0.0
2017-Feb-23 22:34N 49°19' W 123°08'424397.0
2017-Feb-23 22:33N 48°39' W 123°27'3 6.0
2017-Feb-23 22:00N 48°42' W 123°30'4194.7 060 / 51025.0 6.2-0.2
2017-Feb-23 21:33N 49°18' W 122°60'4172.5
2017-Feb-23 21:00N 48°42' W 123°30'45104.5 090 / 41025.6 6.1-0.5
2017-Feb-23 20:34N 49°21' W 122°54'473241.2
2017-Feb-23 20:33N 48°39' W 123°27'3 6.1
2017-Feb-23 20:00N 48°42' W 123°30'44102.7 270 / 41026.2 4.6-1.5
2017-Feb-23 19:34N 49°20' W 122°55'462809.0
2017-Feb-23 19:33N 48°39' W 123°27'3 6.1
2017-Feb-23 19:00N 48°42' W 123°30'3 7.4 280 / 51026.5 3.9-1.2
2017-Feb-23 18:32N 48°39' W 123°27'4219068.3
2017-Feb-23 18:32N 49°18' W 123°01'4174.6
2017-Feb-23 18:00N 48°42' W 123°30'4189.4 300 / 61026.5 3.2-1.3
2017-Feb-23 17:32N 49°18' W 123°01'4174.6
2017-Feb-23 17:00N 48°42' W 123°30'4189.4 300 / 51026.2 2.5-1.5
2017-Feb-23 16:32N 49°18' W 123°01'42120.0
2017-Feb-23 16:11N 48°39' W 123°27'317.4
2017-Feb-23 16:00N 48°42' W 123°30'3 7.3 260 / 51026.0 1.8-1.2
2017-Feb-23 15:32N 48°39' W 123°27'42930.2
2017-Feb-23 15:29N 49°18' W 123°01'4182.2
2017-Feb-23 15:00N 48°42' W 123°30'4189.3 320 / 61025.4 1.3-1.1
2017-Feb-23 14:32N 49°18' W 123°01'42399.3
2017-Feb-23 14:26N 48°39' W 123°27'3 7.6
2017-Feb-23 14:00N 48°42' W 123°30'4189.3 290 / 61025.3 2.1-0.9
2017-Feb-23 13:32N 49°18' W 123°01'421030.7
2017-Feb-23 13:30N 48°39' W 123°27'3 6.7
2017-Feb-23 13:00N 48°42' W 123°30'4189.3 290 / 81025.2 2.2-0.6
2017-Feb-23 12:32N 49°18' W 123°01'42102.7
2017-Feb-23 12:07N 48°39' W 123°27'325.4
2017-Feb-23 12:00N 48°42' W 123°30'4189.4 230 / 21025.1 1.9-0.1
2017-Feb-23 11:32N 49°18' W 123°01'42371.2
2017-Feb-23 11:25N 48°39' W 123°27'3 7.8
2017-Feb-23 11:00N 48°42' W 123°30'4189.4 280 / 61025.0 2.7 0.4
2017-Feb-23 10:32N 49°18' W 123°01'422630.1
2017-Feb-23 10:31N 48°39' W 123°27'3 6.3
2017-Feb-23 10:00N 48°42' W 123°30'4189.4 330 / 81025.0 2.4 0.6
2017-Feb-23 09:32N 49°18' W 123°01'4174.6
2017-Feb-23 09:00N 48°42' W 123°30'4180.5 330 / 81025.1 2.2 0.2
2017-Feb-23 08:29N 49°18' W 123°01'42593.6
2017-Feb-23 08:25N 48°39' W 123°27'3 7.9
2017-Feb-23 08:00N 48°42' W 123°30'4180.5 330 / 61025.0 3.2 1.1
2017-Feb-23 07:29N 49°18' W 123°01'421837.9
2017-Feb-23 07:28N 48°39' W 123°27'3 7.1
2017-Feb-23 07:00N 48°42' W 123°30'4189.4 310 / 61024.8 3.4 1.1
2017-Feb-23 06:32N 49°18' W 123°01'42202.3
2017-Feb-23 06:20N 48°39' W 123°27'310.0
2017-Feb-23 06:00N 48°42' W 123°30'4189.4 340 / 41024.5 3.6 1.6
2017-Feb-23 05:32N 49°18' W 123°01'42542.9
2017-Feb-23 05:28N 48°39' W 123°27'3 7.2
2017-Feb-23 05:00N 48°42' W 123°30'4189.4 310 / 61024.4 3.9 1.3
2017-Feb-23 04:32N 49°18' W 123°01'421374.3
2017-Feb-23 04:30N 48°39' W 123°27'3 6.5
2017-Feb-23 04:00N 48°42' W 123°30'4189.4 280 / 41024.1 4.5 1.8
2017-Feb-23 03:32N 49°18' W 123°01'421271.2
2017-Feb-23 03:30N 48°39' W 123°27'3 6.5
2017-Feb-23 03:00N 48°42' W 123°30'4189.4 250 / 51024.1 5.0 1.9
2017-Feb-23 02:32N 49°18' W 123°01'42228.7
2017-Feb-23 02:21N 48°39' W 123°27'3 9.3
2017-Feb-23 02:00N 48°42' W 123°30'3 6.1 040 / 11023.8 5.9 1.4
2017-Feb-23 01:33N 48°39' W 123°29'432029.9
2017-Feb-23 01:32N 49°18' W 123°01'4684.5
2017-Feb-23 01:00N 48°36' W 123°30'1 3.4 110 / 21023.5 6.0 1.0
2017-Feb-23 00:33N 48°37' W 123°29'452867.2
2017-Feb-23 00:32N 49°18' W 123°01'4684.6
2017-Feb-23 00:00N 48°36' W 123°30'46101.2 130 / 31023.4 6.6 0.5
2017-Feb-22 23:32N 49°18' W 123°01'44185.0
2017-Feb-22 23:18N 48°37' W 123°28'2 5.5
2017-Feb-22 23:00N 48°36' W 123°30'46101.2 240 / 31023.3 7.0 1.2
2017-Feb-22 22:32N 49°18' W 123°01'44310.9
2017-Feb-22 22:24N 48°37' W 123°29'2 4.0
2017-Feb-22 22:00N 48°36' W 123°30'46101.2 260 / 11023.3 7.0 1.0
2017-Feb-22 21:32N 49°18' W 123°01'44470.9
2017-Feb-22 21:27N 48°37' W 123°29'2 3.6
2017-Feb-22 21:00N 48°36' W 123°30'46101.2 310 / 41023.5 5.4 0.9
2017-Feb-22 20:32N 49°18' W 123°01'44179.3
2017-Feb-22 20:17N 48°37' W 123°29'2 5.5
2017-Feb-22 20:00N 48°36' W 123°30'2 3.7 320 / 21023.9 4.5 0.6
2017-Feb-22 19:33N 48°37' W 123°29'445164.4
2017-Feb-22 19:32N 49°18' W 123°01'4684.5
2017-Feb-22 19:00N 48°36' W 123°30'4691.2 040 / 21023.9 3.8 0.3
2017-Feb-22 18:29N 49°18' W 123°01'4182.2
2017-Feb-22 18:00N 48°42' W 123°30'4189.4 260 / 11023.9 4.1 0.3
2017-Feb-22 17:32N 49°18' W 123°01'421173.4
2017-Feb-22 17:30N 48°39' W 123°27'3 6.6
2017-Feb-22 17:00N 48°42' W 123°30'4189.4 310 / 51023.4 2.9 0.2
2017-Feb-22 16:32N 49°18' W 123°01'42798.7
2017-Feb-22 16:29N 48°39' W 123°27'3 6.8
2017-Feb-22 16:00N 48°42' W 123°30'4189.4 300 / 31023.2 2.3-0.2
2017-Feb-22 15:32N 49°18' W 123°01'4174.6
2017-Feb-22 15:00N 48°42' W 123°30'4189.4 280 / 41022.9 2.3-0.1
2017-Feb-22 14:32N 49°18' W 123°01'42729.9
2017-Feb-22 14:29N 48°39' W 123°27'3 6.9
2017-Feb-22 14:00N 48°42' W 123°30'4189.4 330 / 41022.8 2.5-0.0
2017-Feb-22 13:32N 49°18' W 123°01'4174.6
2017-Feb-22 13:00N 48°42' W 123°30'4189.4 330 / 61022.5 2.8 0.1
2017-Feb-22 12:32N 49°18' W 123°01'42374.8
2017-Feb-22 12:25N 48°39' W 123°27'3 7.8
2017-Feb-22 12:00N 48°42' W 123°30'4180.5 250 / 41022.3 3.2 0.7
2017-Feb-22 11:29N 49°18' W 123°01'4182.2
2017-Feb-22 11:00N 48°42' W 123°30'4189.4 360 / 31022.0 3.3 1.1
2017-Feb-22 10:32N 49°18' W 123°01'4174.6
2017-Feb-22 10:00N 48°42' W 123°30'4189.4 200 / 21022.0 3.6 0.5
2017-Feb-22 09:32N 49°18' W 123°01'42353.9
2017-Feb-22 09:25N 48°39' W 123°27'3 7.9
2017-Feb-22 09:00N 48°42' W 123°30'4189.3 300 / 61021.7 5.0 0.4
2017-Feb-22 08:32N 49°18' W 123°01'42131.3
2017-Feb-22 08:13N 48°39' W 123°27'315.1
2017-Feb-22 08:00N 48°42' W 123°30'4189.4 290 / 81021.2 5.3-0.4
2017-Feb-22 07:32N 49°18' W 123°01'4174.6
2017-Feb-22 07:00N 48°42' W 123°30'4189.4 270 / 71020.7 5.7-0.0
2017-Feb-22 06:32N 49°18' W 123°01'4174.6
2017-Feb-22 06:00N 48°42' W 123°30'4189.3 270 / 121020.3 6.0-0.0
2017-Feb-22 05:32N 49°18' W 123°01'42111.7
2017-Feb-22 05:09N 48°39' W 123°27'320.3
2017-Feb-22 05:00N 48°42' W 123°30'3 7.7 280 / 131019.7 6.4 0.2
2017-Feb-22 04:33N 48°39' W 123°27'422276.8
2017-Feb-22 04:32N 49°18' W 123°01'4174.6
2017-Feb-22 04:00N 48°42' W 123°30'4189.3 260 / 171018.7 6.6-0.1
2017-Feb-22 03:32N 49°18' W 123°01'4174.6
2017-Feb-22 03:00N 48°42' W 123°30'4189.4 210 / 31018.5 6.0 1.8
2017-Feb-22 02:32N 49°18' W 123°01'4174.6
2017-Feb-22 02:00N 48°42' W 123°30'4189.4 140 / 31017.8 6.7 2.6
2017-Feb-22 01:32N 49°18' W 123°01'4174.6
2017-Feb-22 01:00N 48°42' W 123°30'4189.3 090 / 51017.0 8.2 3.2
2017-Feb-22 00:32N 49°18' W 123°01'4174.6
2017-Feb-22 00:00N 48°42' W 123°30'4189.3 090 / 61016.2 8.3 4.0
2017-Feb-21 23:32N 49°18' W 123°01'4174.6
2017-Feb-21 23:00N 48°42' W 123°30'4180.5 100 / 91015.3 8.2 3.6
2017-Feb-21 22:29N 49°18' W 123°01'42290.0
2017-Feb-21 22:20N 48°39' W 123°27'3 9.6
2017-Feb-21 22:00N 48°42' W 123°30'4189.4 100 / 61014.7 8.4 2.1
2017-Feb-21 21:32N 49°18' W 123°01'4174.6
2017-Feb-21 21:00N 48°42' W 123°30'4189.3 120 / 61014.5 8.7 2.2
2017-Feb-21 20:32N 49°18' W 123°01'42120.7
2017-Feb-21 20:11N 48°39' W 123°27'317.3
2017-Feb-21 20:00N 48°42' W 123°30'4189.4 270 / 21014.3 6.8 1.9
2017-Feb-21 19:32N 49°18' W 123°01'42277.4
2017-Feb-21 19:23N 48°39' W 123°27'3 8.5
2017-Feb-21 19:00N 48°42' W 123°30'4189.4 310 / 61013.4 5.8 2.0
2017-Feb-21 18:32N 49°18' W 123°01'42770.4
2017-Feb-21 18:29N 48°39' W 123°27'3 6.8
2017-Feb-21 18:00N 48°42' W 123°30'4189.3 320 / 71012.6 5.1 1.8
2017-Feb-21 17:32N 49°18' W 123°01'42230.1
2017-Feb-21 17:21N 48°39' W 123°27'3 9.3
2017-Feb-21 17:00N 48°42' W 123°30'3 7.4 320 / 91011.8 3.9 1.8
2017-Feb-21 16:32N 48°39' W 123°27'4219068.3
2017-Feb-21 16:32N 49°18' W 123°01'4174.6
2017-Feb-21 16:00N 48°42' W 123°30'3 7.7 330 / 51010.8 3.6 2.0
2017-Feb-21 15:33N 48°39' W 123°27'422311.3
2017-Feb-21 15:32N 49°18' W 123°01'4174.6
2017-Feb-21 15:00N 48°42' W 123°30'3 7.2 290 / 61009.7 4.7 2.9
2017-Feb-21 14:34N 48°39' W 123°30'431980.7
2017-Feb-21 14:32N 49°18' W 123°01'4684.5
2017-Feb-21 14:00N 48°36' W 123°30'1 2.7 310 / 81008.9 5.0 3.4
2017-Feb-21 13:33N 48°37' W 123°30'454153.0
2017-Feb-21 13:32N 49°18' W 123°01'4684.5
2017-Feb-21 13:00N 48°36' W 123°30'0 1.0 320 / 91008.6 5.7 3.8
2017-Feb-21 12:34N 48°36' W 123°30'462117.8
2017-Feb-21 12:32N 49°18' W 123°01'4684.5
2017-Feb-21 12:00N 48°36' W 123°30'510.8 310 / 91008.6 5.0 3.8
2017-Feb-21 11:33N 48°41' W 123°30'422036.9
2017-Feb-21 11:32N 49°18' W 123°01'3971.6
2017-Feb-21 11:00N 48°42' W 123°24'3 5.9 350 / 41008.6 6.1 5.1
2017-Feb-21 10:33N 48°45' W 123°23'361750.9
2017-Feb-21 10:32N 49°18' W 123°01'3869.1
2017-Feb-21 10:00N 48°42' W 123°18'3 6.1 350 / 41008.4 6.7 5.3
2017-Feb-21 09:33N 48°44' W 123°15'351652.6
2017-Feb-21 09:32N 49°18' W 123°01'3666.4
2017-Feb-21 09:00N 48°42' W 123°06'510.9 040 / 31008.4 6.9 5.8
2017-Feb-21 08:33N 48°46' W 123°03'321547.8
2017-Feb-21 08:32N 49°18' W 123°01'3055.4
2017-Feb-21 08:00N 48°48' W 123°06'4 9.8 060 / 61008.0 6.8 5.9
2017-Feb-21 07:34N 48°52' W 123°08'261220.3
2017-Feb-21 07:32N 49°18' W 123°01'2545.9
2017-Feb-21 07:00N 48°54' W 123°12'612.9 120 / 91007.9 6.9 5.4
2017-Feb-21 06:33N 48°58' W 123°18'231175.6
2017-Feb-21 06:32N 49°18' W 123°01'2342.9
2017-Feb-21 06:00N 49°00' W 123°24'511.2 080 / 51007.6 6.8 4.6
2017-Feb-21 05:33N 49°04' W 123°28'221117.1
2017-Feb-21 05:32N 49°18' W 123°01'2647.1
2017-Feb-21 05:00N 49°06' W 123°36'510.8 340 / 41007.8 6.8 4.2
2017-Feb-21 04:33N 49°10' W 123°38'25358.9
2017-Feb-21 04:29N 49°18' W 123°01'2755.0
2017-Feb-21 04:00N 49°12' W 123°42'2759.9 280 / 81007.3 7.0 3.4
2017-Feb-21 03:32N 49°18' W 123°01'35123.0
2017-Feb-21 03:15N 49°17' W 123°55'1 3.0
2017-Feb-21 03:00N 49°18' W 123°54'3475.5 280 / 101006.9 6.9 4.0
2017-Feb-21 02:32N 49°18' W 123°01'41907.0
2017-Feb-21 02:29N 49°21' W 124°05'3 5.4
2017-Feb-21 02:00N 49°24' W 124°06'4393.5 270 / 111006.2 6.7 4.0
2017-Feb-21 01:32N 49°18' W 123°01'422029.2
2017-Feb-21 01:31N 49°22' W 124°05'5 9.4
2017-Feb-21 01:00N 49°24' W 124°12'3 6.8 290 / 91006.2 8.0 4.7
2017-Feb-21 00:33N 49°24' W 124°17'493012.2
2017-Feb-21 00:32N 49°18' W 123°01'5499.4
2017-Feb-21 00:00N 49°24' W 124°24'3 6.9 310 / 91005.6 6.8 3.6
2017-Feb-20 23:32N 49°26' W 124°28'57205271.3
2017-Feb-20 23:32N 49°18' W 123°01'62113.7
2017-Feb-20 23:00N 49°24' W 124°36'62136.2 310 / 71004.9 7.1 3.6
2017-Feb-20 22:32N 49°18' W 123°01'653478.3
2017-Feb-20 22:31N 49°28' W 124°40'611.2
2017-Feb-20 22:00N 49°30' W 124°48'2 5.1 320 / 41004.3 6.1 3.3
2017-Feb-20 21:33N 49°29' W 124°45'686008.7
2017-Feb-20 21:32N 49°18' W 123°01'63115.2
2017-Feb-20 21:00N 49°30' W 124°36'63137.9 300 / 101003.3 5.9 3.7
2017-Feb-20 20:32N 49°18' W 123°01'603016.2
2017-Feb-20 20:31N 49°30' W 124°32'712.6
2017-Feb-20 20:00N 49°36' W 124°36'2 5.6 330 / 111003.6 6.7 4.3
2017-Feb-20 19:33N 49°37' W 124°39'664056.2
2017-Feb-20 19:32N 49°18' W 123°01'70127.8
2017-Feb-20 19:00N 49°42' W 124°42'612.9 330 / 121003.3 6.1 4.0
2017-Feb-20 18:33N 49°45' W 124°49'756294.9
2017-Feb-20 18:32N 49°18' W 123°01'79145.0
2017-Feb-20 18:00N 49°48' W 124°54'512.0 310 / 121003.1 5.1 3.8
2017-Feb-20 17:33N 49°52' W 124°59'834287.9
2017-Feb-20 17:32N 49°18' W 123°01'81149.4
2017-Feb-20 17:00N 49°54' W 124°54'4 8.6 310 / 101002.4 4.2 3.2
2017-Feb-20 16:33N 49°53' W 124°60'844158.6
2017-Feb-20 16:32N 49°18' W 123°01'81149.4
2017-Feb-20 16:00N 49°54' W 124°54'4 9.8 320 / 111001.7 4.6 3.8
2017-Feb-20 15:33N 49°50' W 124°52'783765.2
2017-Feb-20 15:32N 49°18' W 123°01'75138.3
2017-Feb-20 15:00N 49°48' W 124°48'4 8.8 320 / 101001.4 5.1 4.2
2017-Feb-20 14:33N 49°45' W 124°44'723799.5
2017-Feb-20 14:32N 49°18' W 123°01'70127.7
2017-Feb-20 14:00N 49°42' W 124°42'2 4.1 310 / 61001.8 6.6 4.8
2017-Feb-20 13:33N 49°44' W 124°41'703254.4
2017-Feb-20 13:32N 49°18' W 123°01'70127.7
2017-Feb-20 13:00N 49°42' W 124°42'512.3 140 / 91001.5 6.9 2.4
2017-Feb-20 12:34N 49°38' W 124°37'653004.0
2017-Feb-20 12:32N 49°18' W 123°01'64117.6
2017-Feb-20 12:00N 49°36' W 124°36'817.7 180 / 71002.2 6.6 2.4
2017-Feb-20 11:33N 49°29' W 124°31'594261.8
2017-Feb-20 11:32N 49°18' W 123°01'59108.0
2017-Feb-20 11:00N 49°30' W 124°30'2 4.4 160 / 11002.4 6.6 4.3
2017-Feb-20 10:32N 49°28' W 124°30'5917560.9
2017-Feb-20 10:32N 49°18' W 123°01'5499.3
2017-Feb-20 10:00N 49°24' W 124°24'511.1 120 / 61002.2 6.8 5.0
2017-Feb-20 09:33N 49°26' W 124°17'502327.9
2017-Feb-20 09:32N 49°18' W 123°01'4685.1
2017-Feb-20 09:00N 49°24' W 124°12'2 4.1 150 / 81001.8 7.1 4.8
2017-Feb-20 08:33N 49°24' W 124°09'452087.3
2017-Feb-20 08:32N 49°18' W 123°01'4378.0
2017-Feb-20 08:00N 49°24' W 124°06'4393.5 130 / 131001.3 7.2 4.9
2017-Feb-20 07:32N 49°18' W 123°01'3055.8
2017-Feb-20 07:00N 49°18' W 123°48'3066.8 130 / 141001.0 7.1 5.4
2017-Feb-20 06:32N 49°18' W 123°01'30333.8
2017-Feb-20 06:27N 49°19' W 123°48'1 2.4
2017-Feb-20 06:00N 49°18' W 123°48'1 2.2 130 / 181000.3 7.4 5.9
2017-Feb-20 05:33N 49°17' W 123°47'303043.3
2017-Feb-20 05:32N 49°18' W 123°01'2648.6
2017-Feb-20 05:00N 49°18' W 123°42'4 8.0 130 / 19999.5 7.6 5.5
2017-Feb-20 04:33N 49°15' W 123°45'291978.8
2017-Feb-20 04:32N 49°18' W 123°01'2648.6
2017-Feb-20 04:00N 49°18' W 123°42'511.3 130 / 18999.5 9.2 5.9
2017-Feb-20 03:33N 49°13' W 123°41'261401.4
2017-Feb-20 03:32N 49°18' W 123°01'2342.9
2017-Feb-20 03:00N 49°12' W 123°36'3 6.6 130 / 13999.3 7.7 5.3
2017-Feb-20 02:33N 49°10' W 123°33'221910.5
2017-Feb-20 02:32N 49°18' W 123°01'2240.9
2017-Feb-20 02:00N 49°06' W 123°30'2 4.0 140 / 17998.7 8.0 5.3
2017-Feb-20 01:33N 49°05' W 123°29'221135.1
2017-Feb-20 01:32N 49°18' W 123°01'2342.9
2017-Feb-20 01:00N 49°00' W 123°24'2 5.1 140 / 21997.4 7.8 4.4
2017-Feb-20 00:33N 49°02' W 123°26'231665.6
2017-Feb-20 00:32N 49°18' W 123°01'2342.9
2017-Feb-20 00:00N 49°00' W 123°24'1 3.1 140 / 21997.5 10.6 5.1
2017-Feb-19 23:33N 48°59' W 123°22'231147.3
2017-Feb-19 23:32N 49°18' W 123°01'2648.5
2017-Feb-19 23:00N 48°54' W 123°18'511.0 150 / 17997.3 10.3 4.4
2017-Feb-19 22:33N 48°52' W 123°12'271437.2
2017-Feb-19 22:32N 49°18' W 123°01'2546.0
2017-Feb-19 22:00N 48°54' W 123°12'3 6.3 150 / 20996.8 8.8 4.1
2017-Feb-19 21:33N 48°51' W 123°11'271299.6
2017-Feb-19 21:32N 49°18' W 123°01'3055.5
2017-Feb-19 21:00N 48°48' W 123°06'4 8.0 150 / 16997.1 8.0 4.3
2017-Feb-19 20:33N 48°47' W 123°01'311652.8
2017-Feb-19 20:32N 49°18' W 123°01'3055.3
2017-Feb-19 20:00N 48°48' W 123°00'410.3 150 / 22996.2 8.0 4.5
2017-Feb-19 19:33N 48°45' W 123°05'331583.1
2017-Feb-19 19:32N 49°18' W 123°01'3666.5
2017-Feb-19 19:00N 48°42' W 123°06'3 7.7 150 / 17995.9 7.7 4.4
2017-Feb-19 18:33N 48°43' W 123°11'362354.7
2017-Feb-19 18:32N 49°18' W 123°01'4379.8
2017-Feb-19 18:00N 48°36' W 123°18'2 5.1 130 / 13995.9 7.3 4.3
2017-Feb-19 17:34N 48°37' W 123°15'42585.3
2017-Feb-19 17:29N 49°18' W 123°01'4386.2
2017-Feb-19 17:00N 48°36' W 123°12'1 2.3 130 / 11995.8 7.3 4.1
2017-Feb-19 16:33N 48°36' W 123°13'432302.9
2017-Feb-19 16:32N 49°18' W 123°01'4989.2
2017-Feb-19 16:00N 48°30' W 123°12'511.0 130 / 18995.1 6.9 5.1
2017-Feb-19 15:34N 48°25' W 123°10'532450.1
2017-Feb-19 15:32N 49°18' W 123°01'55101.3
2017-Feb-19 15:00N 48°24' W 123°18'612.7 130 / 12994.1 6.6 3.5
2017-Feb-19 14:33N 48°20' W 123°24'60844.9
2017-Feb-19 14:29N 49°18' W 123°01'63127.3
2017-Feb-19 14:00N 48°18' W 123°30'4 8.8 020 / 14993.6 6.4 5.1
2017-Feb-19 13:33N 48°17' W 123°36'6510250.6
2017-Feb-19 13:32N 49°18' W 123°01'66120.8
2017-Feb-19 13:00N 48°18' W 123°42'612.9 020 / 8994.3 5.7 4.0
2017-Feb-19 12:32N 48°18' W 123°51'6818836.7
2017-Feb-19 12:32N 49°18' W 123°01'69127.3
2017-Feb-19 12:00N 48°18' W 123°54'4 9.2 110 / 6995.0 6.5 4.6
2017-Feb-19 11:33N 48°18' W 124°00'721105.3
2017-Feb-19 11:29N 49°18' W 123°01'71144.2
2017-Feb-19 11:00N 48°18' W 124°00'71157.0 120 / 5995.4 6.5 4.6
2017-Feb-19 10:32N 49°18' W 123°01'76139.4
2017-Feb-19 10:00N 48°18' W 124°12'76167.0 120 / 9995.5 6.7 4.7
2017-Feb-19 09:32N 49°18' W 123°01'80145.9
2017-Feb-19 09:00N 48°24' W 124°30'80174.8 170 / 5996.0 6.6 3.7
2017-Feb-19 08:32N 49°18' W 123°01'82150.1
2017-Feb-19 08:00N 48°30' W 124°42'82135.1 120 / 11995.9 6.5 3.7
2017-Feb-19 07:23N 49°18' W 123°01'82207.2
2017-Feb-19 07:00N 48°30' W 124°42'82161.9 150 / 12996.4 6.7 4.4
2017-Feb-19 06:29N 49°18' W 123°01'85171.7
2017-Feb-19 06:00N 48°30' W 124°48'85186.9 170 / 13996.0 7.7 4.2
2017-Feb-19 05:32N 49°18' W 123°01'95174.2
2017-Feb-19 05:00N 48°30' W 125°06'95208.8 190 / 11995.6 7.8 3.3
2017-Feb-19 04:32N 49°18' W 123°01'987366.7
2017-Feb-19 04:31N 48°33' W 125°14'814.1
2017-Feb-19 04:00N 48°36' W 125°24'3 7.8 200 / 12995.3 7.7 3.9
2017-Feb-19 03:33N 48°34' W 125°28'1064894.9
2017-Feb-19 03:32N 49°18' W 123°01'106195.1
2017-Feb-19 03:00N 48°36' W 125°30'613.0 230 / 4995.3 7.8 5.1
2017-Feb-19 02:33N 48°35' W 125°38'1125293.1
2017-Feb-19 02:32N 49°18' W 123°01'117215.2
2017-Feb-19 02:00N 48°36' W 125°48'4 9.6 280 / 4995.5 7.7 4.5
2017-Feb-19 01:33N 48°36' W 125°54'1215742.5
2017-Feb-19 01:32N 49°18' W 123°01'121221.8
2017-Feb-19 01:00N 48°36' W 125°54'4 9.0 320 / 4995.8 7.7 4.1
2017-Feb-19 00:34N 48°36' W 125°60'1255749.7
2017-Feb-19 00:32N 49°18' W 123°01'121221.9
2017-Feb-19 00:00N 48°36' W 125°54'121265.6 300 / 6996.0 8.2 4.3
2017-Feb-18 23:32N 49°18' W 123°01'1253870.3
2017-Feb-18 23:30N 48°36' W 126°00'4 7.6
2017-Feb-18 23:00N 48°36' W 126°06'613.9 290 / 3996.1 7.7 3.7
2017-Feb-18 22:33N 48°37' W 126°15'1337066.7
2017-Feb-18 22:32N 49°18' W 123°01'136249.3
2017-Feb-18 22:00N 48°36' W 126°18'2 4.7 300 / 5996.5 7.5 3.4
2017-Feb-18 21:34N 48°38' W 126°20'1376144.6
2017-Feb-18 21:32N 49°18' W 123°01'140256.2
2017-Feb-18 21:00N 48°36' W 126°24'140276.2 250 / 4997.3 7.2 3.2
2017-Feb-18 20:29N 49°18' W 123°01'149301.5
2017-Feb-18 20:00N 48°42' W 126°42'149327.8 030 / 2997.5 7.4 3.0
2017-Feb-18 19:32N 49°18' W 123°01'149273.7
2017-Feb-18 19:00N 48°42' W 126°42'149327.6 030 / 3997.6 7.3 3.0
2017-Feb-18 18:32N 49°18' W 123°01'149273.8
2017-Feb-18 18:00N 48°42' W 126°42'149327.6 360 / 6997.7 7.2 2.9
2017-Feb-18 17:32N 49°18' W 123°01'155285.3
2017-Feb-18 17:00N 48°48' W 126°54'155341.5 340 / 9998.2 7.1 2.7
2017-Feb-18 16:32N 49°18' W 123°01'155285.1
2017-Feb-18 16:00N 48°48' W 126°54'155341.3 340 / 11998.2 6.6 2.8
2017-Feb-18 15:32N 49°18' W 123°01'155285.3
2017-Feb-18 15:00N 48°48' W 126°54'155341.5 330 / 13998.3 6.6 3.0
2017-Feb-18 14:32N 49°18' W 123°01'155285.1
2017-Feb-18 14:00N 48°48' W 126°54'155341.5 330 / 14998.2 6.8 3.1
2017-Feb-18 13:32N 49°18' W 123°01'164301.8
2017-Feb-18 13:00N 48°42' W 127°06'164361.3 330 / 191000.2 6.8 3.6
2017-Feb-18 12:32N 49°18' W 123°01'168309.0
2017-Feb-18 12:00N 48°42' W 127°12'168370.0 330 / 141000.5 7.1 3.8
2017-Feb-18 11:32N 49°18' W 123°01'172315.9
2017-Feb-18 11:00N 48°42' W 127°18'172340.8 330 / 141001.1 7.0 3.9
2017-Feb-18 10:29N 49°18' W 123°01'184371.4
2017-Feb-18 10:00N 48°42' W 127°36'184403.8 330 / 181001.4 6.8 4.2
2017-Feb-18 09:32N 49°18' W 123°01'188344.2
2017-Feb-18 09:00N 48°42' W 127°42'188412.3 360 / 161001.8 7.0 3.9
2017-Feb-18 08:32N 49°18' W 123°01'191351.3
2017-Feb-18 08:00N 48°42' W 127°48'191379.1 340 / 161002.5 6.7 3.6
2017-Feb-18 07:29N 49°18' W 123°01'202407.9
2017-Feb-18 07:00N 48°48' W 128°06'202443.7 320 / 171003.6 6.6 3.0
2017-Feb-18 06:32N 49°18' W 123°01'206377.6
2017-Feb-18 06:00N 48°48' W 128°12'206452.0 340 / 181004.3 6.9 3.1
2017-Feb-18 05:32N 49°18' W 123°01'206377.8
2017-Feb-18 05:00N 48°48' W 128°12'206452.3 320 / 151005.3 6.3 3.1
2017-Feb-18 04:32N 49°18' W 123°01'214391.9
2017-Feb-18 04:00N 48°48' W 128°24'214469.1 330 / 141005.9 5.9 2.6
2017-Feb-18 03:32N 49°18' W 123°01'225413.5
2017-Feb-18 03:00N 48°48' W 128°42'225495.1 340 / 181005.8 6.1 2.0
2017-Feb-18 02:32N 49°18' W 123°01'225413.3
2017-Feb-18 02:00N 48°48' W 128°42'225495.1 330 / 181006.0 6.2 2.1
2017-Feb-18 01:32N 49°18' W 123°01'225413.3
2017-Feb-18 01:00N 48°48' W 128°42'225495.1 340 / 171006.3 6.6 1.8
2017-Feb-18 00:32N 49°18' W 123°01'225413.3
2017-Feb-18 00:00N 48°48' W 128°42'225495.1 350 / 151006.8 6.8 1.5
2017-Feb-17 23:32N 49°18' W 123°01'225413.3
2017-Feb-17 23:00N 48°48' W 128°42'225494.8 360 / 151007.1 6.8 2.2
2017-Feb-17 22:32N 49°18' W 123°01'229420.7
2017-Feb-17 22:00N 48°48' W 128°48'229503.6 010 / 151007.1 6.9 2.4
2017-Feb-17 21:32N 49°18' W 123°01'237434.8
2017-Feb-17 21:00N 48°48' W 129°00'237520.8 020 / 151008.1 6.6 2.2
2017-Feb-17 20:32N 49°18' W 123°01'244447.4
2017-Feb-17 20:00N 48°54' W 129°12'244535.9 020 / 121009.1 7.0 2.5
2017-Feb-17 19:32N 49°18' W 123°01'244447.4
2017-Feb-17 19:00N 48°54' W 129°12'244535.6 010 / 131008.7 7.1 2.0
2017-Feb-17 18:32N 49°18' W 123°01'252462.0
2017-Feb-17 18:00N 48°54' W 129°24'252553.1 020 / 141008.0 6.8 1.9
2017-Feb-17 17:32N 49°18' W 123°01'263483.3
2017-Feb-17 17:00N 48°54' W 129°42'263578.9 360 / 131008.9 6.4 2.7
2017-Feb-17 16:32N 49°18' W 123°01'263483.3
2017-Feb-17 16:00N 48°54' W 129°42'263578.6 360 / 121008.3 6.6 2.8
2017-Feb-17 15:32N 49°18' W 123°01'263483.6
2017-Feb-17 15:00N 48°54' W 129°42'263578.9 010 / 141007.4 6.4 2.6
2017-Feb-17 14:32N 49°18' W 123°01'271497.7
2017-Feb-17 14:00N 48°54' W 129°54'271596.1 360 / 131007.9 6.2 3.1
2017-Feb-17 13:32N 49°18' W 123°01'283519.2
2017-Feb-17 13:00N 48°54' W 130°12'283621.9 340 / 101008.0 6.1 3.4
2017-Feb-17 12:32N 49°18' W 123°01'283519.2
2017-Feb-17 12:00N 48°54' W 130°12'283560.0 320 / 91007.8 6.3 3.0
2017-Feb-17 11:29N 49°18' W 123°01'287579.9
2017-Feb-17 11:00N 48°54' W 130°18'287630.5 330 / 101007.7 6.0 2.5
2017-Feb-17 10:32N 49°18' W 123°01'299547.9
2017-Feb-17 10:00N 48°54' W 130°36'299656.3 330 / 101007.3 6.2 2.4
2017-Feb-17 09:32N 49°18' W 123°01'303555.1
2017-Feb-17 09:00N 48°54' W 130°42'303664.5 310 / 91007.2 6.1 2.3
2017-Feb-17 08:32N 49°18' W 123°01'303555.4
2017-Feb-17 08:00N 48°54' W 130°42'303664.5 320 / 71006.7 6.2 2.1
2017-Feb-17 07:32N 49°18' W 123°01'303555.4
2017-Feb-17 07:00N 48°54' W 130°42'303664.9 330 / 81006.2 6.3 1.1
2017-Feb-17 06:32N 49°18' W 123°01'303555.1
2017-Feb-17 06:00N 48°54' W 130°42'303664.9 330 / 91005.5 6.2 2.0
2017-Feb-17 05:32N 49°18' W 123°01'303555.1
2017-Feb-17 05:00N 48°54' W 130°42'303664.5 310 / 81004.7 6.0 1.5
2017-Feb-17 04:32N 49°18' W 123°01'303555.4
2017-Feb-17 04:00N 48°54' W 130°42'303664.5 300 / 71004.3 5.8 1.5
2017-Feb-17 03:32N 49°18' W 123°01'303555.4
2017-Feb-17 03:00N 48°54' W 130°42'303664.9 300 / 91003.5 5.9 1.8
2017-Feb-17 02:32N 49°18' W 123°01'303555.1
2017-Feb-17 02:00N 48°54' W 130°42'303664.9 330 / 81002.5 5.6 1.9
2017-Feb-17 01:32N 49°18' W 123°01'303555.1
2017-Feb-17 01:00N 48°54' W 130°42'303500.1 300 / 91002.2 6.5 1.5
2017-Feb-17 00:23N 49°18' W 123°01'306775.8
2017-Feb-17 00:00N 48°54' W 130°48'306673.1 270 / 111001.8 7.2 1.3
2017-Feb-16 23:32N 49°18' W 123°01'318584.2
2017-Feb-16 23:00N 48°54' W 131°06'318630.1 300 / 121000.9 6.6 1.3
2017-Feb-16 22:29N 49°18' W 123°01'325657.2
2017-Feb-16 22:00N 49°00' W 131°18'325715.0 310 / 121000.1 6.3 2.2
2017-Feb-16 21:32N 49°18' W 123°01'337618.5
2017-Feb-16 21:00N 49°00' W 131°36'337740.4 310 / 14999.4 6.3 1.5
2017-Feb-16 20:32N 49°18' W 123°01'341626.0
2017-Feb-16 20:00N 49°00' W 131°42'341749.5 320 / 16998.5 6.2 1.5
2017-Feb-16 19:32N 49°18' W 123°01'341625.7
2017-Feb-16 19:00N 49°00' W 131°42'341749.5 310 / 15997.6 6.5 1.2
2017-Feb-16 18:32N 49°18' W 123°01'349640.1
2017-Feb-16 18:00N 49°00' W 131°54'349766.7 320 / 15996.6 6.6 2.3
2017-Feb-16 17:32N 49°18' W 123°01'360660.5
2017-Feb-16 17:00N 49°06' W 132°12'360790.7 310 / 15995.7 6.7 2.1
2017-Feb-16 16:32N 49°18' W 123°01'372682.4
2017-Feb-16 16:00N 49°06' W 132°30'372817.0 310 / 15994.7 6.7 2.7
2017-Feb-16 15:32N 49°18' W 123°01'380696.5
2017-Feb-16 15:00N 49°06' W 132°42'380833.7 310 / 23992.7 6.7 2.5
2017-Feb-16 14:32N 49°18' W 123°01'380696.8
2017-Feb-16 14:00N 49°06' W 132°42'380834.2 310 / 24992.2 6.6 3.5
2017-Feb-16 13:32N 49°18' W 123°01'387710.8
2017-Feb-16 13:00N 49°06' W 132°54'387851.5 310 / 19991.6 6.7 3.5
2017-Feb-16 12:32N 49°18' W 123°01'395724.2
2017-Feb-16 12:00N 49°12' W 133°06'395867.5 300 / 17991.0 6.8 3.7
2017-Feb-16 11:32N 49°18' W 123°01'406745.8
2017-Feb-16 11:00N 49°12' W 133°24'406893.3 310 / 17990.6 6.7 3.5
2017-Feb-16 10:32N 49°18' W 123°01'418767.4
2017-Feb-16 10:00N 49°12' W 133°42'418918.6 330 / 23989.6 6.6 3.5
2017-Feb-16 09:32N 49°18' W 123°01'418767.7
2017-Feb-16 09:00N 49°12' W 133°42'418918.6 330 / 23988.7 6.4 4.8
2017-Feb-16 08:32N 49°18' W 123°01'422774.9
2017-Feb-16 08:00N 49°12' W 133°48'422927.2 330 / 20988.7 6.3 5.1
2017-Feb-16 07:32N 49°18' W 123°01'430789.3
2017-Feb-16 07:00N 49°12' W 134°00'430945.0 330 / 19988.8 6.6 5.7
2017-Feb-16 06:32N 49°18' W 123°01'441809.6
2017-Feb-16 06:00N 49°18' W 134°18'441969.1 330 / 19988.7 6.6 5.8
2017-Feb-16 05:32N 49°18' W 123°01'453831.5
2017-Feb-16 05:00N 49°18' W 134°36'453995.5 340 / 18988.7 6.6 5.7
2017-Feb-16 04:32N 49°18' W 123°01'457838.3
2017-Feb-16 04:00N 49°18' W 134°42'4571004.7 360 / 19988.2 6.4 6.0
2017-Feb-16 03:32N 49°18' W 123°01'457837.9
2017-Feb-16 03:00N 49°18' W 134°42'4571004.1 010 / 17987.9 6.9 6.3
2017-Feb-16 02:32N 49°18' W 123°01'457838.3
2017-Feb-16 02:00N 49°18' W 134°42'4571004.7 360 / 13988.6 7.1 6.5
2017-Feb-16 01:32N 49°18' W 123°01'457837.9
2017-Feb-16 01:00N 49°18' W 134°42'4571003.5 010 / 12989.0 6.7 5.9
2017-Feb-16 00:32N 49°18' W 123°01'457838.7
2017-Feb-16 00:00N 49°18' W 134°42'4571003.5 010 / 9989.9 7.0 6.4
2017-Feb-15 23:32N 49°18' W 123°01'457838.7
2017-Feb-15 23:00N 49°18' W 134°42'457905.2 020 / 11990.7 6.8 6.0
2017-Feb-15 22:29N 49°18' W 123°01'457922.4
2017-Feb-15 22:00N 49°18' W 134°42'4571004.7 040 / 9992.2 7.1 6.4
2017-Feb-15 21:32N 49°18' W 123°01'457837.9
2017-Feb-15 21:00N 49°18' W 134°42'4571004.1 050 / 9992.4 7.1 6.3
2017-Feb-15 20:32N 49°18' W 123°01'457838.3
2017-Feb-15 20:00N 49°18' W 134°42'4571004.1 100 / 5993.7 7.3 6.2
2017-Feb-15 19:32N 49°18' W 123°01'457838.3
2017-Feb-15 19:00N 49°18' W 134°42'4571004.1 080 / 6994.3 7.2 6.6
2017-Feb-15 18:32N 49°18' W 123°01'465852.6
2017-Feb-15 18:00N 49°18' W 134°54'4651020.7 140 / 4994.9 7.3 6.9
2017-Feb-15 17:32N 49°18' W 123°01'476874.6
2017-Feb-15 17:00N 49°18' W 135°12'4761047.1 050 / 7994.2 6.9 6.5
2017-Feb-15 16:32N 49°18' W 123°01'488895.7
2017-Feb-15 16:00N 49°18' W 135°30'4881072.2 100 / 5993.8 7.2 6.6
2017-Feb-15 15:32N 49°18' W 123°01'496910.5
2017-Feb-15 15:00N 49°18' W 135°42'4961089.4 110 / 1993.4 7.0 6.4
2017-Feb-15 14:32N 49°18' W 123°01'496910.5
2017-Feb-15 14:00N 49°18' W 135°42'4961090.1 330 / 5992.2 7.1 6.6
2017-Feb-15 13:32N 49°18' W 123°01'503923.6
2017-Feb-15 13:00N 49°24' W 135°54'5031105.6 310 / 5991.6 6.8 6.4
2017-Feb-15 12:32N 49°18' W 123°01'515945.6
2017-Feb-15 12:00N 49°24' W 136°12'5151132.0 270 / 6991.3 7.1 6.1
2017-Feb-15 11:32N 49°18' W 123°01'523959.4
2017-Feb-15 11:00N 49°24' W 136°24'5231148.5 270 / 6990.3 7.4 5.7
2017-Feb-15 10:32N 49°18' W 123°01'535981.4
2017-Feb-15 10:00N 49°24' W 136°42'5351175.0 280 / 4989.5 7.4 6.7
2017-Feb-15 09:32N 49°18' W 123°01'535980.9
2017-Feb-15 09:00N 49°24' W 136°42'5351175.0 280 / 9988.7 8.0 7.3
2017-Feb-15 08:32N 49°18' W 123°01'539988.1
2017-Feb-15 08:00N 49°24' W 136°48'5391184.3 260 / 9988.2 7.4 7.0
2017-Feb-15 07:32N 49°18' W 123°01'5501008.3
2017-Feb-15 07:00N 49°30' W 137°06'5501207.6 280 / 4987.9 6.9 6.5
2017-Feb-15 06:32N 49°18' W 123°01'5581023.6
2017-Feb-15 06:00N 49°30' W 137°18'5581224.7 270 / 6987.5 6.8 6.4
2017-Feb-15 05:32N 49°18' W 123°01'5691045.1
2017-Feb-15 05:00N 49°30' W 137°36'5691251.2 250 / 5987.1 6.8 6.4
2017-Feb-15 04:32N 49°18' W 123°01'5731051.7
2017-Feb-15 04:00N 49°30' W 137°42'5731259.0 200 / 11986.7 7.5 7.1
2017-Feb-15 03:32N 49°18' W 123°01'5731052.3
2017-Feb-15 03:00N 49°30' W 137°42'5731259.8 200 / 14986.2 7.7 7.3
2017-Feb-15 02:32N 49°18' W 123°01'5811066.1
2017-Feb-15 02:00N 49°30' W 137°54'5811149.9 190 / 16985.6 7.7 7.3
2017-Feb-15 01:29N 49°18' W 123°01'5931198.1
2017-Feb-15 01:00N 49°30' W 138°12'5931173.7 200 / 17985.1 7.9 7.2
2017-Feb-15 00:29N 49°18' W 123°01'6041221.1
2017-Feb-15 00:00N 49°30' W 138°30'6041327.6 190 / 19984.3 7.8 7.3
2017-Feb-14 23:32N 49°18' W 123°01'6121123.9
2017-Feb-14 23:00N 49°30' W 138°42'6121345.6 200 / 21983.6 8.1 7.5
2017-Feb-14 22:32N 49°18' W 123°01'6241144.9
2017-Feb-14 22:00N 49°30' W 139°00'6241370.5 190 / 22983.1 8.2 7.5
2017-Feb-14 21:32N 49°18' W 123°01'6361166.9
2017-Feb-14 21:00N 49°30' W 139°18'6361396.2 180 / 23982.7 8.2 7.4
2017-Feb-14 20:32N 49°18' W 123°01'6431181.3
2017-Feb-14 20:00N 49°30' W 139°30'6431415.1 190 / 23982.2 8.1 7.5
2017-Feb-14 19:32N 49°18' W 123°01'6551201.6
2017-Feb-14 19:00N 49°30' W 139°48'6551440.0 180 / 24982.0 8.0 7.6
2017-Feb-14 18:32N 49°18' W 123°01'6631216.5
2017-Feb-14 18:00N 49°30' W 140°00'6631312.8 180 / 25981.6 8.0 7.6
2017-Feb-14 17:29N 49°18' W 123°01'6751363.0
2017-Feb-14 17:00N 49°30' W 140°18'   170 / 25981.3 7.8 7.4
Track history (hours):
 
Tides and Currents Weather Stations Pressure Air Temp Water Temp Dewpoint Dewpoint Depression Visibility Wind Speed Wind Dir Waves Ship Positions

Oceanographic research ship John P. Tully (Canada)

Detailed information on ship capabilities available from University of Delaware's Ocean Information Center.

Last reported at 2017-Feb-24 16:33 UTC. Time now 2017-Feb-24 17:20 UTC.
Position N 48°57' W 125°50'.

Length 68.9 m; beam 14.5 m; draft 4.5 m.

MMSI: 316114000.

Date/timePositionNaut miles runAvg speedWind from/ knotsBaromVisibWave heightAir tempDewpointWater temp
2017-Feb-24 16:33N 48°57' W 125°50'96384.7
2017-Feb-24 16:19N 48°39' W 123°27'90284.5
2017-Feb-24 16:00N 48°54' W 125°42'4 8.8 100 / 161019.9 4.4-0.0
2017-Feb-24 15:34N 48°52' W 125°37'871745.7
2017-Feb-24 15:31N 48°39' W 123°27'82157.7
2017-Feb-24 15:00N 48°48' W 125°30'4 9.6 100 / 111019.9 3.9 0.5
2017-Feb-24 14:33N 48°46' W 125°24'785711.1
2017-Feb-24 14:33N 48°39' W 123°27'73132.7
2017-Feb-24 14:00N 48°42' W 125°18'3 7.0 110 / 121019.9 3.4 1.5
2017-Feb-24 13:33N 48°41' W 125°14'7010125.6
2017-Feb-24 13:33N 48°39' W 123°27'65117.7
2017-Feb-24 13:00N 48°42' W 125°06'613.4 080 / 131020.1 2.9 1.3
2017-Feb-24 12:33N 48°37' W 125°00'6214802.8
2017-Feb-24 12:33N 48°39' W 123°27'58102.6
2017-Feb-24 12:00N 48°36' W 124°54'715.1 020 / 31020.1 2.8 1.4
2017-Feb-24 11:34N 48°33' W 124°45'5293228.6
2017-Feb-24 11:33N 48°39' W 123°27'4782.1
2017-Feb-24 11:00N 48°30' W 124°36'47107.2 200 / 151019.8 3.1 1.4
2017-Feb-24 10:33N 48°39' W 123°27'436957.0
2017-Feb-24 10:33N 48°29' W 124°30'4 6.7
2017-Feb-24 10:00N 48°30' W 124°24'716.6 200 / 161020.4 3.5 0.9
2017-Feb-24 09:33N 48°26' W 124°15'3520798.4
2017-Feb-24 09:33N 48°39' W 123°27'3053.1
2017-Feb-24 09:00N 48°24' W 124°06'3069.0 210 / 101020.8 5.1-0.8
2017-Feb-24 08:33N 48°39' W 123°27'282011.2
2017-Feb-24 08:33N 48°22' W 124°01'611.0
2017-Feb-24 08:00N 48°18' W 123°54'2863.9 230 / 101021.2 4.8-0.9
2017-Feb-24 07:33N 48°39' W 123°27'254426.8
2017-Feb-24 07:33N 48°19' W 123°48'4 6.8
2017-Feb-24 07:00N 48°18' W 123°42'2354.1 270 / 141022.1 5.2-0.4
2017-Feb-24 06:34N 48°39' W 123°27'231464.9
2017-Feb-24 06:33N 48°17' W 123°33'611.1
2017-Feb-24 06:00N 48°18' W 123°24'2148.9 260 / 71022.4 5.0 0.9
2017-Feb-24 05:33N 48°39' W 123°27'174604.0
2017-Feb-24 05:33N 48°23' W 123°23'712.7
2017-Feb-24 05:00N 48°24' W 123°12'4 9.8 200 / 61022.4 5.4 0.2
2017-Feb-24 04:33N 48°28' W 123°12'1510578.0
2017-Feb-24 04:33N 48°39' W 123°27'1118.6
2017-Feb-24 04:00N 48°36' W 123°12'1124.4 200 / 91022.2 5.3-0.8
2017-Feb-24 03:33N 48°39' W 123°27'85511.9
2017-Feb-24 03:33N 48°41' W 123°16'5 9.5
2017-Feb-24 03:00N 48°42' W 123°24'3 7.3 200 / 91023.4 4.9 0.3
2017-Feb-24 02:34N 48°42' W 123°29'54875.2
2017-Feb-24 02:33N 48°45' W 123°22'610.8
2017-Feb-24 02:00N 48°42' W 123°30'1533.9 150 / 31023.6 5.7-0.1
2017-Feb-24 01:33N 48°55' W 123°18'1614775.7
2017-Feb-24 01:33N 48°39' W 123°27'3 5.9
2017-Feb-24 01:00N 48°42' W 123°30'2249.3 140 / 31023.9 6.8-0.0
2017-Feb-24 00:33N 49°03' W 123°25'2460.7
2017-Feb-24 00:09N 48°39' W 123°27'320.7
2017-Feb-24 00:00N 48°42' W 123°30'3377.2 150 / 31024.1 6.2-0.3
2017-Feb-23 23:34N 49°15' W 123°21'36100.4
2017-Feb-23 23:12N 48°39' W 123°27'316.1
2017-Feb-23 23:00N 48°42' W 123°30'4091.2 120 / 61024.5 6.2-0.0
2017-Feb-23 22:34N 49°19' W 123°08'424397.0
2017-Feb-23 22:33N 48°39' W 123°27'3 6.0
2017-Feb-23 22:00N 48°42' W 123°30'4194.7 060 / 51025.0 6.2-0.2
2017-Feb-23 21:33N 49°18' W 122°60'4172.5
2017-Feb-23 21:00N 48°42' W 123°30'45104.5 090 / 41025.6 6.1-0.5
2017-Feb-23 20:34N 49°21' W 122°54'473241.2
2017-Feb-23 20:33N 48°39' W 123°27'3 6.1
2017-Feb-23 20:00N 48°42' W 123°30'44102.7 270 / 41026.2 4.6-1.5
2017-Feb-23 19:34N 49°20' W 122°55'462809.0
2017-Feb-23 19:33N 48°39' W 123°27'3 6.1
2017-Feb-23 19:00N 48°42' W 123°30'3 7.4 280 / 51026.5 3.9-1.2
2017-Feb-23 18:32N 48°39' W 123°27'4219068.3
2017-Feb-23 18:32N 49°18' W 123°01'4174.6
2017-Feb-23 18:00N 48°42' W 123°30'4189.4 300 / 61026.5 3.2-1.3
2017-Feb-23 17:32N 49°18' W 123°01'4174.6
2017-Feb-23 17:00N 48°42' W 123°30'4189.4 300 / 51026.2 2.5-1.5
2017-Feb-23 16:32N 49°18' W 123°01'42120.0
2017-Feb-23 16:11N 48°39' W 123°27'317.4
2017-Feb-23 16:00N 48°42' W 123°30'3 7.3 260 / 51026.0 1.8-1.2
2017-Feb-23 15:32N 48°39' W 123°27'42930.2
2017-Feb-23 15:29N 49°18' W 123°01'4182.2
2017-Feb-23 15:00N 48°42' W 123°30'4189.3 320 / 61025.4 1.3-1.1
2017-Feb-23 14:32N 49°18' W 123°01'42399.3
2017-Feb-23 14:26N 48°39' W 123°27'3 7.6
2017-Feb-23 14:00N 48°42' W 123°30'4189.3 290 / 61025.3 2.1-0.9
2017-Feb-23 13:32N 49°18' W 123°01'421030.7
2017-Feb-23 13:30N 48°39' W 123°27'3 6.7
2017-Feb-23 13:00N 48°42' W 123°30'4189.3 290 / 81025.2 2.2-0.6
2017-Feb-23 12:32N 49°18' W 123°01'42102.7
2017-Feb-23 12:07N 48°39' W 123°27'325.4
2017-Feb-23 12:00N 48°42' W 123°30'4189.4 230 / 21025.1 1.9-0.1
2017-Feb-23 11:32N 49°18' W 123°01'42371.2
2017-Feb-23 11:25N 48°39' W 123°27'3 7.8
2017-Feb-23 11:00N 48°42' W 123°30'4189.4 280 / 61025.0 2.7 0.4
2017-Feb-23 10:32N 49°18' W 123°01'422630.1
2017-Feb-23 10:31N 48°39' W 123°27'3 6.3
2017-Feb-23 10:00N 48°42' W 123°30'4189.4 330 / 81025.0 2.4 0.6
2017-Feb-23 09:32N 49°18' W 123°01'4174.6
2017-Feb-23 09:00N 48°42' W 123°30'4180.5 330 / 81025.1 2.2 0.2
2017-Feb-23 08:29N 49°18' W 123°01'42593.6
2017-Feb-23 08:25N 48°39' W 123°27'3 7.9
2017-Feb-23 08:00N 48°42' W 123°30'4180.5 330 / 61025.0 3.2 1.1
2017-Feb-23 07:29N 49°18' W 123°01'421837.9
2017-Feb-23 07:28N 48°39' W 123°27'3 7.1
2017-Feb-23 07:00N 48°42' W 123°30'4189.4 310 / 61024.8 3.4 1.1
2017-Feb-23 06:32N 49°18' W 123°01'42202.3
2017-Feb-23 06:20N 48°39' W 123°27'310.0
2017-Feb-23 06:00N 48°42' W 123°30'4189.4 340 / 41024.5 3.6 1.6
2017-Feb-23 05:32N 49°18' W 123°01'42542.9
2017-Feb-23 05:28N 48°39' W 123°27'3 7.2
2017-Feb-23 05:00N 48°42' W 123°30'4189.4 310 / 61024.4 3.9 1.3
2017-Feb-23 04:32N 49°18' W 123°01'421374.3
2017-Feb-23 04:30N 48°39' W 123°27'3 6.5
2017-Feb-23 04:00N 48°42' W 123°30'4189.4 280 / 41024.1 4.5 1.8
2017-Feb-23 03:32N 49°18' W 123°01'421271.2
2017-Feb-23 03:30N 48°39' W 123°27'3 6.5
2017-Feb-23 03:00N 48°42' W 123°30'4189.4 250 / 51024.1 5.0 1.9
2017-Feb-23 02:32N 49°18' W 123°01'42228.7
2017-Feb-23 02:21N 48°39' W 123°27'3 9.3
2017-Feb-23 02:00N 48°42' W 123°30'3 6.1 040 / 11023.8 5.9 1.4
2017-Feb-23 01:33N 48°39' W 123°29'432029.9
2017-Feb-23 01:32N 49°18' W 123°01'4684.5
2017-Feb-23 01:00N 48°36' W 123°30'1 3.4 110 / 21023.5 6.0 1.0
2017-Feb-23 00:33N 48°37' W 123°29'452867.2
2017-Feb-23 00:32N 49°18' W 123°01'4684.6
2017-Feb-23 00:00N 48°36' W 123°30'46101.2 130 / 31023.4 6.6 0.5
2017-Feb-22 23:32N 49°18' W 123°01'44185.0
2017-Feb-22 23:18N 48°37' W 123°28'2 5.5
2017-Feb-22 23:00N 48°36' W 123°30'46101.2 240 / 31023.3 7.0 1.2
2017-Feb-22 22:32N 49°18' W 123°01'44310.9
2017-Feb-22 22:24N 48°37' W 123°29'2 4.0
2017-Feb-22 22:00N 48°36' W 123°30'46101.2 260 / 11023.3 7.0 1.0
2017-Feb-22 21:32N 49°18' W 123°01'44470.9
2017-Feb-22 21:27N 48°37' W 123°29'2 3.6
2017-Feb-22 21:00N 48°36' W 123°30'46101.2 310 / 41023.5 5.4 0.9
2017-Feb-22 20:32N 49°18' W 123°01'44179.3
2017-Feb-22 20:17N 48°37' W 123°29'2 5.5
2017-Feb-22 20:00N 48°36' W 123°30'2 3.7 320 / 21023.9 4.5 0.6
2017-Feb-22 19:33N 48°37' W 123°29'445164.4
2017-Feb-22 19:32N 49°18' W 123°01'4684.5
2017-Feb-22 19:00N 48°36' W 123°30'4691.2 040 / 21023.9 3.8 0.3
2017-Feb-22 18:29N 49°18' W 123°01'4182.2
2017-Feb-22 18:00N 48°42' W 123°30'4189.4 260 / 11023.9 4.1 0.3
2017-Feb-22 17:32N 49°18' W 123°01'421173.4
2017-Feb-22 17:30N 48°39' W 123°27'3 6.6
2017-Feb-22 17:00N 48°42' W 123°30'4189.4 310 / 51023.4 2.9 0.2
2017-Feb-22 16:32N 49°18' W 123°01'42798.7
2017-Feb-22 16:29N 48°39' W 123°27'3 6.8
2017-Feb-22 16:00N 48°42' W 123°30'4189.4 300 / 31023.2 2.3-0.2
2017-Feb-22 15:32N 49°18' W 123°01'4174.6
2017-Feb-22 15:00N 48°42' W 123°30'4189.4 280 / 41022.9 2.3-0.1
2017-Feb-22 14:32N 49°18' W 123°01'42729.9
2017-Feb-22 14:29N 48°39' W 123°27'3 6.9
2017-Feb-22 14:00N 48°42' W 123°30'4189.4 330 / 41022.8 2.5-0.0
2017-Feb-22 13:32N 49°18' W 123°01'4174.6
2017-Feb-22 13:00N 48°42' W 123°30'4189.4 330 / 61022.5 2.8 0.1
2017-Feb-22 12:32N 49°18' W 123°01'42374.8
2017-Feb-22 12:25N 48°39' W 123°27'3 7.8
2017-Feb-22 12:00N 48°42' W 123°30'4180.5 250 / 41022.3 3.2 0.7
2017-Feb-22 11:29N 49°18' W 123°01'4182.2
2017-Feb-22 11:00N 48°42' W 123°30'4189.4 360 / 31022.0 3.3 1.1
2017-Feb-22 10:32N 49°18' W 123°01'4174.6
2017-Feb-22 10:00N 48°42' W 123°30'4189.4 200 / 21022.0 3.6 0.5
2017-Feb-22 09:32N 49°18' W 123°01'42353.9
2017-Feb-22 09:25N 48°39' W 123°27'3 7.9
2017-Feb-22 09:00N 48°42' W 123°30'4189.3 300 / 61021.7 5.0 0.4
2017-Feb-22 08:32N 49°18' W 123°01'42131.3
2017-Feb-22 08:13N 48°39' W 123°27'315.1
2017-Feb-22 08:00N 48°42' W 123°30'4189.4 290 / 81021.2 5.3-0.4
2017-Feb-22 07:32N 49°18' W 123°01'4174.6
2017-Feb-22 07:00N 48°42' W 123°30'4189.4 270 / 71020.7 5.7-0.0
2017-Feb-22 06:32N 49°18' W 123°01'4174.6
2017-Feb-22 06:00N 48°42' W 123°30'4189.3 270 / 121020.3 6.0-0.0
2017-Feb-22 05:32N 49°18' W 123°01'42111.7
2017-Feb-22 05:09N 48°39' W 123°27'320.3
2017-Feb-22 05:00N 48°42' W 123°30'3 7.7 280 / 131019.7 6.4 0.2
2017-Feb-22 04:33N 48°39' W 123°27'422276.8
2017-Feb-22 04:32N 49°18' W 123°01'4174.6
2017-Feb-22 04:00N 48°42' W 123°30'4189.3 260 / 171018.7 6.6-0.1
2017-Feb-22 03:32N 49°18' W 123°01'4174.6
2017-Feb-22 03:00N 48°42' W 123°30'4189.4 210 / 31018.5 6.0 1.8
2017-Feb-22 02:32N 49°18' W 123°01'4174.6
2017-Feb-22 02:00N 48°42' W 123°30'4189.4 140 / 31017.8 6.7 2.6
2017-Feb-22 01:32N 49°18' W 123°01'4174.6
2017-Feb-22 01:00N 48°42' W 123°30'4189.3 090 / 51017.0 8.2 3.2
2017-Feb-22 00:32N 49°18' W 123°01'4174.6
2017-Feb-22 00:00N 48°42' W 123°30'4189.3 090 / 61016.2 8.3 4.0
2017-Feb-21 23:32N 49°18' W 123°01'4174.6
2017-Feb-21 23:00N 48°42' W 123°30'4180.5 100 / 91015.3 8.2 3.6
2017-Feb-21 22:29N 49°18' W 123°01'42290.0
2017-Feb-21 22:20N 48°39' W 123°27'3 9.6
2017-Feb-21 22:00N 48°42' W 123°30'4189.4 100 / 61014.7 8.4 2.1
2017-Feb-21 21:32N 49°18' W 123°01'4174.6
2017-Feb-21 21:00N 48°42' W 123°30'4189.3 120 / 61014.5 8.7 2.2
2017-Feb-21 20:32N 49°18' W 123°01'42120.7
2017-Feb-21 20:11N 48°39' W 123°27'317.3
2017-Feb-21 20:00N 48°42' W 123°30'4189.4 270 / 21014.3 6.8 1.9
2017-Feb-21 19:32N 49°18' W 123°01'42277.4
2017-Feb-21 19:23N 48°39' W 123°27'3 8.5
2017-Feb-21 19:00N 48°42' W 123°30'4189.4 310 / 61013.4 5.8 2.0
2017-Feb-21 18:32N 49°18' W 123°01'42770.4
2017-Feb-21 18:29N 48°39' W 123°27'3 6.8
2017-Feb-21 18:00N 48°42' W 123°30'4189.3 320 / 71012.6 5.1 1.8
2017-Feb-21 17:32N 49°18' W 123°01'42230.1
2017-Feb-21 17:21N 48°39' W 123°27'3 9.3
2017-Feb-21 17:00N 48°42' W 123°30'3 7.4 320 / 91011.8 3.9 1.8
2017-Feb-21 16:32N 48°39' W 123°27'4219068.3
2017-Feb-21 16:32N 49°18' W 123°01'4174.6
2017-Feb-21 16:00N 48°42' W 123°30'3 7.7 330 / 51010.8 3.6 2.0
2017-Feb-21 15:33N 48°39' W 123°27'422311.3
2017-Feb-21 15:32N 49°18' W 123°01'4174.6
2017-Feb-21 15:00N 48°42' W 123°30'3 7.2 290 / 61009.7 4.7 2.9
2017-Feb-21 14:34N 48°39' W 123°30'431980.7
2017-Feb-21 14:32N 49°18' W 123°01'4684.5
2017-Feb-21 14:00N 48°36' W 123°30'1 2.7 310 / 81008.9 5.0 3.4
2017-Feb-21 13:33N 48°37' W 123°30'454153.0
2017-Feb-21 13:32N 49°18' W 123°01'4684.5
2017-Feb-21 13:00N 48°36' W 123°30'0 1.0 320 / 91008.6 5.7 3.8
2017-Feb-21 12:34N 48°36' W 123°30'462117.8
2017-Feb-21 12:32N 49°18' W 123°01'4684.5
2017-Feb-21 12:00N 48°36' W 123°30'510.8 310 / 91008.6 5.0 3.8
2017-Feb-21 11:33N 48°41' W 123°30'422036.9
2017-Feb-21 11:32N 49°18' W 123°01'3971.6
2017-Feb-21 11:00N 48°42' W 123°24'3 5.9 350 / 41008.6 6.1 5.1
2017-Feb-21 10:33N 48°45' W 123°23'361750.9
2017-Feb-21 10:32N 49°18' W 123°01'3869.1
2017-Feb-21 10:00N 48°42' W 123°18'3 6.1 350 / 41008.4 6.7 5.3
2017-Feb-21 09:33N 48°44' W 123°15'351652.6
2017-Feb-21 09:32N 49°18' W 123°01'3666.4
2017-Feb-21 09:00N 48°42' W 123°06'510.9 040 / 31008.4 6.9 5.8
2017-Feb-21 08:33N 48°46' W 123°03'321547.8
2017-Feb-21 08:32N 49°18' W 123°01'3055.4
2017-Feb-21 08:00N 48°48' W 123°06'4 9.8 060 / 61008.0 6.8 5.9
2017-Feb-21 07:34N 48°52' W 123°08'261220.3
2017-Feb-21 07:32N 49°18' W 123°01'2545.9
2017-Feb-21 07:00N 48°54' W 123°12'612.9 120 / 91007.9 6.9 5.4
2017-Feb-21 06:33N 48°58' W 123°18'231175.6
2017-Feb-21 06:32N 49°18' W 123°01'2342.9
2017-Feb-21 06:00N 49°00' W 123°24'511.2 080 / 51007.6 6.8 4.6
2017-Feb-21 05:33N 49°04' W 123°28'221117.1
2017-Feb-21 05:32N 49°18' W 123°01'2647.1
2017-Feb-21 05:00N 49°06' W 123°36'510.8 340 / 41007.8 6.8 4.2
2017-Feb-21 04:33N 49°10' W 123°38'25358.9
2017-Feb-21 04:29N 49°18' W 123°01'2755.0
2017-Feb-21 04:00N 49°12' W 123°42'2759.9 280 / 81007.3 7.0 3.4
2017-Feb-21 03:32N 49°18' W 123°01'35123.0
2017-Feb-21 03:15N 49°17' W 123°55'1 3.0
2017-Feb-21 03:00N 49°18' W 123°54'3475.5 280 / 101006.9 6.9 4.0
2017-Feb-21 02:32N 49°18' W 123°01'41907.0
2017-Feb-21 02:29N 49°21' W 124°05'3 5.4
2017-Feb-21 02:00N 49°24' W 124°06'4393.5 270 / 111006.2 6.7 4.0
2017-Feb-21 01:32N 49°18' W 123°01'422029.2
2017-Feb-21 01:31N 49°22' W 124°05'5 9.4
2017-Feb-21 01:00N 49°24' W 124°12'3 6.8 290 / 91006.2 8.0 4.7
2017-Feb-21 00:33N 49°24' W 124°17'493012.2
2017-Feb-21 00:32N 49°18' W 123°01'5499.4
2017-Feb-21 00:00N 49°24' W 124°24'3 6.9 310 / 91005.6 6.8 3.6
2017-Feb-20 23:32N 49°26' W 124°28'57205271.3
2017-Feb-20 23:32N 49°18' W 123°01'62113.7
2017-Feb-20 23:00N 49°24' W 124°36'62136.2 310 / 71004.9 7.1 3.6
2017-Feb-20 22:32N 49°18' W 123°01'653478.3
2017-Feb-20 22:31N 49°28' W 124°40'611.2
2017-Feb-20 22:00N 49°30' W 124°48'2 5.1 320 / 41004.3 6.1 3.3
2017-Feb-20 21:33N 49°29' W 124°45'686008.7
2017-Feb-20 21:32N 49°18' W 123°01'63115.2
2017-Feb-20 21:00N 49°30' W 124°36'63137.9 300 / 101003.3 5.9 3.7
2017-Feb-20 20:32N 49°18' W 123°01'603016.2
2017-Feb-20 20:31N 49°30' W 124°32'712.6
2017-Feb-20 20:00N 49°36' W 124°36'2 5.6 330 / 111003.6 6.7 4.3
2017-Feb-20 19:33N 49°37' W 124°39'664056.2
2017-Feb-20 19:32N 49°18' W 123°01'70127.8
2017-Feb-20 19:00N 49°42' W 124°42'612.9 330 / 121003.3 6.1 4.0
2017-Feb-20 18:33N 49°45' W 124°49'756294.9
2017-Feb-20 18:32N 49°18' W 123°01'79145.0
2017-Feb-20 18:00N 49°48' W 124°54'512.0 310 / 121003.1 5.1 3.8
2017-Feb-20 17:33N 49°52' W 124°59'834287.9
2017-Feb-20 17:32N 49°18' W 123°01'81149.4
2017-Feb-20 17:00N 49°54' W 124°54'4 8.6 310 / 101002.4 4.2 3.2
2017-Feb-20 16:33N 49°53' W 124°60'844158.6
2017-Feb-20 16:32N 49°18' W 123°01'81149.4
2017-Feb-20 16:00N 49°54' W 124°54'4 9.8 320 / 111001.7 4.6 3.8
2017-Feb-20 15:33N 49°50' W 124°52'783765.2
2017-Feb-20 15:32N 49°18' W 123°01'75138.3
2017-Feb-20 15:00N 49°48' W 124°48'4 8.8 320 / 101001.4 5.1 4.2
2017-Feb-20 14:33N 49°45' W 124°44'723799.5
2017-Feb-20 14:32N 49°18' W 123°01'70127.7
2017-Feb-20 14:00N 49°42' W 124°42'2 4.1 310 / 61001.8 6.6 4.8
2017-Feb-20 13:33N 49°44' W 124°41'703254.4
2017-Feb-20 13:32N 49°18' W 123°01'70127.7
2017-Feb-20 13:00N 49°42' W 124°42'512.3 140 / 91001.5 6.9 2.4
2017-Feb-20 12:34N 49°38' W 124°37'653004.0
2017-Feb-20 12:32N 49°18' W 123°01'64117.6
2017-Feb-20 12:00N 49°36' W 124°36'817.7 180 / 71002.2 6.6 2.4
2017-Feb-20 11:33N 49°29' W 124°31'594261.8
2017-Feb-20 11:32N 49°18' W 123°01'59108.0
2017-Feb-20 11:00N 49°30' W 124°30'2 4.4 160 / 11002.4 6.6 4.3
2017-Feb-20 10:32N 49°28' W 124°30'5917560.9
2017-Feb-20 10:32N 49°18' W 123°01'5499.3
2017-Feb-20 10:00N 49°24' W 124°24'511.1 120 / 61002.2 6.8 5.0
2017-Feb-20 09:33N 49°26' W 124°17'502327.9
2017-Feb-20 09:32N 49°18' W 123°01'4685.1
2017-Feb-20 09:00N 49°24' W 124°12'2 4.1 150 / 81001.8 7.1 4.8
2017-Feb-20 08:33N 49°24' W 124°09'452087.3
2017-Feb-20 08:32N 49°18' W 123°01'4378.0
2017-Feb-20 08:00N 49°24' W 124°06'4393.5 130 / 131001.3 7.2 4.9
2017-Feb-20 07:32N 49°18' W 123°01'3055.8
2017-Feb-20 07:00N 49°18' W 123°48'3066.8 130 / 141001.0 7.1 5.4
2017-Feb-20 06:32N 49°18' W 123°01'30333.8
2017-Feb-20 06:27N 49°19' W 123°48'1 2.4
2017-Feb-20 06:00N 49°18' W 123°48'1 2.2 130 / 181000.3 7.4 5.9
2017-Feb-20 05:33N 49°17' W 123°47'303043.3
2017-Feb-20 05:32N 49°18' W 123°01'2648.6
2017-Feb-20 05:00N 49°18' W 123°42'4 8.0 130 / 19999.5 7.6 5.5
2017-Feb-20 04:33N 49°15' W 123°45'291978.8
2017-Feb-20 04:32N 49°18' W 123°01'2648.6
2017-Feb-20 04:00N 49°18' W 123°42'511.3 130 / 18999.5 9.2 5.9
2017-Feb-20 03:33N 49°13' W 123°41'261401.4
2017-Feb-20 03:32N 49°18' W 123°01'2342.9
2017-Feb-20 03:00N 49°12' W 123°36'3 6.6 130 / 13999.3 7.7 5.3
2017-Feb-20 02:33N 49°10' W 123°33'221910.5
2017-Feb-20 02:32N 49°18' W 123°01'2240.9
2017-Feb-20 02:00N 49°06' W 123°30'2 4.0 140 / 17998.7 8.0 5.3
2017-Feb-20 01:33N 49°05' W 123°29'221135.1
2017-Feb-20 01:32N 49°18' W 123°01'2342.9
2017-Feb-20 01:00N 49°00' W 123°24'2 5.1 140 / 21997.4 7.8 4.4
2017-Feb-20 00:33N 49°02' W 123°26'231665.6
2017-Feb-20 00:32N 49°18' W 123°01'2342.9
2017-Feb-20 00:00N 49°00' W 123°24'1 3.1 140 / 21997.5 10.6 5.1
2017-Feb-19 23:33N 48°59' W 123°22'231147.3
2017-Feb-19 23:32N 49°18' W 123°01'2648.5
2017-Feb-19 23:00N 48°54' W 123°18'511.0 150 / 17997.3 10.3 4.4
2017-Feb-19 22:33N 48°52' W 123°12'271437.2
2017-Feb-19 22:32N 49°18' W 123°01'2546.0
2017-Feb-19 22:00N 48°54' W 123°12'3 6.3 150 / 20996.8 8.8 4.1
2017-Feb-19 21:33N 48°51' W 123°11'271299.6
2017-Feb-19 21:32N 49°18' W 123°01'3055.5
2017-Feb-19 21:00N 48°48' W 123°06'4 8.0 150 / 16997.1 8.0 4.3
2017-Feb-19 20:33N 48°47' W 123°01'311652.8
2017-Feb-19 20:32N 49°18' W 123°01'3055.3
2017-Feb-19 20:00N 48°48' W 123°00'410.3 150 / 22996.2 8.0 4.5
2017-Feb-19 19:33N 48°45' W 123°05'331583.1
2017-Feb-19 19:32N 49°18' W 123°01'3666.5
2017-Feb-19 19:00N 48°42' W 123°06'3 7.7 150 / 17995.9 7.7 4.4
2017-Feb-19 18:33N 48°43' W 123°11'362354.7
2017-Feb-19 18:32N 49°18' W 123°01'4379.8
2017-Feb-19 18:00N 48°36' W 123°18'2 5.1 130 / 13995.9 7.3 4.3
2017-Feb-19 17:34N 48°37' W 123°15'42585.3
2017-Feb-19 17:29N 49°18' W 123°01'4386.2
2017-Feb-19 17:00N 48°36' W 123°12'1 2.3 130 / 11995.8 7.3 4.1
2017-Feb-19 16:33N 48°36' W 123°13'432302.9
2017-Feb-19 16:32N 49°18' W 123°01'4989.2
2017-Feb-19 16:00N 48°30' W 123°12'511.0 130 / 18995.1 6.9 5.1
2017-Feb-19 15:34N 48°25' W 123°10'532450.1
2017-Feb-19 15:32N 49°18' W 123°01'55101.3
2017-Feb-19 15:00N 48°24' W 123°18'612.7 130 / 12994.1 6.6 3.5
2017-Feb-19 14:33N 48°20' W 123°24'60844.9
2017-Feb-19 14:29N 49°18' W 123°01'63127.3
2017-Feb-19 14:00N 48°18' W 123°30'4 8.8 020 / 14993.6 6.4 5.1
2017-Feb-19 13:33N 48°17' W 123°36'6510250.6
2017-Feb-19 13:32N 49°18' W 123°01'66120.8
2017-Feb-19 13:00N 48°18' W 123°42'612.9 020 / 8994.3 5.7 4.0
2017-Feb-19 12:32N 48°18' W 123°51'6818836.7
2017-Feb-19 12:32N 49°18' W 123°01'69127.3
2017-Feb-19 12:00N 48°18' W 123°54'4 9.2 110 / 6995.0 6.5 4.6
2017-Feb-19 11:33N 48°18' W 124°00'721105.3
2017-Feb-19 11:29N 49°18' W 123°01'71144.2
2017-Feb-19 11:00N 48°18' W 124°00'71157.0 120 / 5995.4 6.5 4.6
2017-Feb-19 10:32N 49°18' W 123°01'76139.4
2017-Feb-19 10:00N 48°18' W 124°12'76167.0 120 / 9995.5 6.7 4.7
2017-Feb-19 09:32N 49°18' W 123°01'80145.9
2017-Feb-19 09:00N 48°24' W 124°30'80174.8 170 / 5996.0 6.6 3.7
2017-Feb-19 08:32N 49°18' W 123°01'82150.1
2017-Feb-19 08:00N 48°30' W 124°42'82135.1 120 / 11995.9 6.5 3.7
2017-Feb-19 07:23N 49°18' W 123°01'82207.2
2017-Feb-19 07:00N 48°30' W 124°42'82161.9 150 / 12996.4 6.7 4.4
2017-Feb-19 06:29N 49°18' W 123°01'85171.7
2017-Feb-19 06:00N 48°30' W 124°48'85186.9 170 / 13996.0 7.7 4.2
2017-Feb-19 05:32N 49°18' W 123°01'95174.2
2017-Feb-19 05:00N 48°30' W 125°06'95208.8 190 / 11995.6 7.8 3.3
2017-Feb-19 04:32N 49°18' W 123°01'987366.7
2017-Feb-19 04:31N 48°33' W 125°14'814.1
2017-Feb-19 04:00N 48°36' W 125°24'3 7.8 200 / 12995.3 7.7 3.9
2017-Feb-19 03:33N 48°34' W 125°28'1064894.9
2017-Feb-19 03:32N 49°18' W 123°01'106195.1
2017-Feb-19 03:00N 48°36' W 125°30'613.0 230 / 4995.3 7.8 5.1
2017-Feb-19 02:33N 48°35' W 125°38'1125293.1
2017-Feb-19 02:32N 49°18' W 123°01'117215.2
2017-Feb-19 02:00N 48°36' W 125°48'4 9.6 280 / 4995.5 7.7 4.5
2017-Feb-19 01:33N 48°36' W 125°54'1215742.5
2017-Feb-19 01:32N 49°18' W 123°01'121221.8
2017-Feb-19 01:00N 48°36' W 125°54'4 9.0 320 / 4995.8 7.7 4.1
2017-Feb-19 00:34N 48°36' W 125°60'1255749.7
2017-Feb-19 00:32N 49°18' W 123°01'121221.9
2017-Feb-19 00:00N 48°36' W 125°54'121265.6 300 / 6996.0 8.2 4.3
2017-Feb-18 23:32N 49°18' W 123°01'1253870.3
2017-Feb-18 23:30N 48°36' W 126°00'4 7.6
2017-Feb-18 23:00N 48°36' W 126°06'613.9 290 / 3996.1 7.7 3.7
2017-Feb-18 22:33N 48°37' W 126°15'1337066.7
2017-Feb-18 22:32N 49°18' W 123°01'136249.3
2017-Feb-18 22:00N 48°36' W 126°18'2 4.7 300 / 5996.5 7.5 3.4
2017-Feb-18 21:34N 48°38' W 126°20'1376144.6
2017-Feb-18 21:32N 49°18' W 123°01'140256.2
2017-Feb-18 21:00N 48°36' W 126°24'140276.2 250 / 4997.3 7.2 3.2
2017-Feb-18 20:29N 49°18' W 123°01'149301.5
2017-Feb-18 20:00N 48°42' W 126°42'149327.8 030 / 2997.5 7.4 3.0
2017-Feb-18 19:32N 49°18' W 123°01'149273.7
2017-Feb-18 19:00N 48°42' W 126°42'149327.6 030 / 3997.6 7.3 3.0
2017-Feb-18 18:32N 49°18' W 123°01'149273.8
2017-Feb-18 18:00N 48°42' W 126°42'149327.6 360 / 6997.7 7.2 2.9
2017-Feb-18 17:32N 49°18' W 123°01'155285.3
2017-Feb-18 17:00N 48°48' W 126°54'155341.5 340 / 9998.2 7.1 2.7
2017-Feb-18 16:32N 49°18' W 123°01'155285.1
2017-Feb-18 16:00N 48°48' W 126°54'155341.3 340 / 11998.2 6.6 2.8
2017-Feb-18 15:32N 49°18' W 123°01'155285.3
2017-Feb-18 15:00N 48°48' W 126°54'155341.5 330 / 13998.3 6.6 3.0
2017-Feb-18 14:32N 49°18' W 123°01'155285.1
2017-Feb-18 14:00N 48°48' W 126°54'155341.5 330 / 14998.2 6.8 3.1
2017-Feb-18 13:32N 49°18' W 123°01'164301.8
2017-Feb-18 13:00N 48°42' W 127°06'164361.3 330 / 191000.2 6.8 3.6
2017-Feb-18 12:32N 49°18' W 123°01'168309.0
2017-Feb-18 12:00N 48°42' W 127°12'168370.0 330 / 141000.5 7.1 3.8
2017-Feb-18 11:32N 49°18' W 123°01'172315.9
2017-Feb-18 11:00N 48°42' W 127°18'172340.8 330 / 141001.1 7.0 3.9
2017-Feb-18 10:29N 49°18' W 123°01'184371.4
2017-Feb-18 10:00N 48°42' W 127°36'184403.8 330 / 181001.4 6.8 4.2
2017-Feb-18 09:32N 49°18' W 123°01'188344.2
2017-Feb-18 09:00N 48°42' W 127°42'188412.3 360 / 161001.8 7.0 3.9
2017-Feb-18 08:32N 49°18' W 123°01'191351.3
2017-Feb-18 08:00N 48°42' W 127°48'191379.1 340 / 161002.5 6.7 3.6
2017-Feb-18 07:29N 49°18' W 123°01'202407.9
2017-Feb-18 07:00N 48°48' W 128°06'202443.7 320 / 171003.6 6.6 3.0
2017-Feb-18 06:32N 49°18' W 123°01'206377.6
2017-Feb-18 06:00N 48°48' W 128°12'206452.0 340 / 181004.3 6.9 3.1
2017-Feb-18 05:32N 49°18' W 123°01'206377.8
2017-Feb-18 05:00N 48°48' W 128°12'206452.3 320 / 151005.3 6.3 3.1
2017-Feb-18 04:32N 49°18' W 123°01'214391.9
2017-Feb-18 04:00N 48°48' W 128°24'214469.1 330 / 141005.9 5.9 2.6
2017-Feb-18 03:32N 49°18' W 123°01'225413.5
2017-Feb-18 03:00N 48°48' W 128°42'225495.1 340 / 181005.8 6.1 2.0
2017-Feb-18 02:32N 49°18' W 123°01'225413.3
2017-Feb-18 02:00N 48°48' W 128°42'225495.1 330 / 181006.0 6.2 2.1
2017-Feb-18 01:32N 49°18' W 123°01'225413.3
2017-Feb-18 01:00N 48°48' W 128°42'225495.1 340 / 171006.3 6.6 1.8
2017-Feb-18 00:32N 49°18' W 123°01'225413.3
2017-Feb-18 00:00N 48°48' W 128°42'225495.1 350 / 151006.8 6.8 1.5
2017-Feb-17 23:32N 49°18' W 123°01'225413.3
2017-Feb-17 23:00N 48°48' W 128°42'225494.8 360 / 151007.1 6.8 2.2
2017-Feb-17 22:32N 49°18' W 123°01'229420.7
2017-Feb-17 22:00N 48°48' W 128°48'229503.6 010 / 151007.1 6.9 2.4
2017-Feb-17 21:32N 49°18' W 123°01'237434.8
2017-Feb-17 21:00N 48°48' W 129°00'237520.8 020 / 151008.1 6.6 2.2
2017-Feb-17 20:32N 49°18' W 123°01'244447.4
2017-Feb-17 20:00N 48°54' W 129°12'244535.9 020 / 121009.1 7.0 2.5
2017-Feb-17 19:32N 49°18' W 123°01'244447.4
2017-Feb-17 19:00N 48°54' W 129°12'244535.6 010 / 131008.7 7.1 2.0
2017-Feb-17 18:32N 49°18' W 123°01'252462.0
2017-Feb-17 18:00N 48°54' W 129°24'252553.1 020 / 141008.0 6.8 1.9
2017-Feb-17 17:32N 49°18' W 123°01'263483.3
2017-Feb-17 17:00N 48°54' W 129°42'263578.9 360 / 131008.9 6.4 2.7
2017-Feb-17 16:32N 49°18' W 123°01'263483.3
2017-Feb-17 16:00N 48°54' W 129°42'263578.6 360 / 121008.3 6.6 2.8
2017-Feb-17 15:32N 49°18' W 123°01'263483.6
2017-Feb-17 15:00N 48°54' W 129°42'263578.9 010 / 141007.4 6.4 2.6
2017-Feb-17 14:32N 49°18' W 123°01'271497.7
2017-Feb-17 14:00N 48°54' W 129°54'271596.1 360 / 131007.9 6.2 3.1
2017-Feb-17 13:32N 49°18' W 123°01'283519.2
2017-Feb-17 13:00N 48°54' W 130°12'283621.9 340 / 101008.0 6.1 3.4
2017-Feb-17 12:32N 49°18' W 123°01'283519.2
2017-Feb-17 12:00N 48°54' W 130°12'283560.0 320 / 91007.8 6.3 3.0
2017-Feb-17 11:29N 49°18' W 123°01'287579.9
2017-Feb-17 11:00N 48°54' W 130°18'287630.5 330 / 101007.7 6.0 2.5
2017-Feb-17 10:32N 49°18' W 123°01'299547.9
2017-Feb-17 10:00N 48°54' W 130°36'299656.3 330 / 101007.3 6.2 2.4
2017-Feb-17 09:32N 49°18' W 123°01'303555.1
2017-Feb-17 09:00N 48°54' W 130°42'303664.5 310 / 91007.2 6.1 2.3
2017-Feb-17 08:32N 49°18' W 123°01'303555.4
2017-Feb-17 08:00N 48°54' W 130°42'303664.5 320 / 71006.7 6.2 2.1
2017-Feb-17 07:32N 49°18' W 123°01'303555.4
2017-Feb-17 07:00N 48°54' W 130°42'303664.9 330 / 81006.2 6.3 1.1
2017-Feb-17 06:32N 49°18' W 123°01'303555.1
2017-Feb-17 06:00N 48°54' W 130°42'303664.9 330 / 91005.5 6.2 2.0
2017-Feb-17 05:32N 49°18' W 123°01'303555.1
2017-Feb-17 05:00N 48°54' W 130°42'303664.5 310 / 81004.7 6.0 1.5
2017-Feb-17 04:32N 49°18' W 123°01'303555.4
2017-Feb-17 04:00N 48°54' W 130°42'303664.5 300 / 71004.3 5.8 1.5
2017-Feb-17 03:32N 49°18' W 123°01'303555.4
2017-Feb-17 03:00N 48°54' W 130°42'303664.9 300 / 91003.5 5.9 1.8
2017-Feb-17 02:32N 49°18' W 123°01'303555.1
2017-Feb-17 02:00N 48°54' W 130°42'303664.9 330 / 81002.5 5.6 1.9
2017-Feb-17 01:32N 49°18' W 123°01'303555.1
2017-Feb-17 01:00N 48°54' W 130°42'303500.1 300 / 91002.2 6.5 1.5
2017-Feb-17 00:23N 49°18' W 123°01'306775.8
2017-Feb-17 00:00N 48°54' W 130°48'306673.1 270 / 111001.8 7.2 1.3
2017-Feb-16 23:32N 49°18' W 123°01'318584.2
2017-Feb-16 23:00N 48°54' W 131°06'318630.1 300 / 121000.9 6.6 1.3
2017-Feb-16 22:29N 49°18' W 123°01'325657.2
2017-Feb-16 22:00N 49°00' W 131°18'325715.0 310 / 121000.1 6.3 2.2
2017-Feb-16 21:32N 49°18' W 123°01'337618.5
2017-Feb-16 21:00N 49°00' W 131°36'337740.4 310 / 14999.4 6.3 1.5
2017-Feb-16 20:32N 49°18' W 123°01'341626.0
2017-Feb-16 20:00N 49°00' W 131°42'341749.5 320 / 16998.5 6.2 1.5
2017-Feb-16 19:32N 49°18' W 123°01'341625.7
2017-Feb-16 19:00N 49°00' W 131°42'341749.5 310 / 15997.6 6.5 1.2
2017-Feb-16 18:32N 49°18' W 123°01'349640.1
2017-Feb-16 18:00N 49°00' W 131°54'349766.7 320 / 15996.6 6.6 2.3
2017-Feb-16 17:32N 49°18' W 123°01'360660.5
2017-Feb-16 17:00N 49°06' W 132°12'360790.7 310 / 15995.7 6.7 2.1
2017-Feb-16 16:32N 49°18' W 123°01'372682.4
2017-Feb-16 16:00N 49°06' W 132°30'372817.0 310 / 15994.7 6.7 2.7
2017-Feb-16 15:32N 49°18' W 123°01'380696.5
2017-Feb-16 15:00N 49°06' W 132°42'380833.7 310 / 23992.7 6.7 2.5
2017-Feb-16 14:32N 49°18' W 123°01'380696.8
2017-Feb-16 14:00N 49°06' W 132°42'380834.2 310 / 24992.2 6.6 3.5
2017-Feb-16 13:32N 49°18' W 123°01'387710.8
2017-Feb-16 13:00N 49°06' W 132°54'387851.5 310 / 19991.6 6.7 3.5
2017-Feb-16 12:32N 49°18' W 123°01'395724.2
2017-Feb-16 12:00N 49°12' W 133°06'395867.5 300 / 17991.0 6.8 3.7
2017-Feb-16 11:32N 49°18' W 123°01'406745.8
2017-Feb-16 11:00N 49°12' W 133°24'406893.3 310 / 17990.6 6.7 3.5
2017-Feb-16 10:32N 49°18' W 123°01'418767.4
2017-Feb-16 10:00N 49°12' W 133°42'418918.6 330 / 23989.6 6.6 3.5
2017-Feb-16 09:32N 49°18' W 123°01'418767.7
2017-Feb-16 09:00N 49°12' W 133°42'418918.6 330 / 23988.7 6.4 4.8
2017-Feb-16 08:32N 49°18' W 123°01'422774.9
2017-Feb-16 08:00N 49°12' W 133°48'422927.2 330 / 20988.7 6.3 5.1
2017-Feb-16 07:32N 49°18' W 123°01'430789.3
2017-Feb-16 07:00N 49°12' W 134°00'430945.0 330 / 19988.8 6.6 5.7
2017-Feb-16 06:32N 49°18' W 123°01'441809.6
2017-Feb-16 06:00N 49°18' W 134°18'441969.1 330 / 19988.7 6.6 5.8
2017-Feb-16 05:32N 49°18' W 123°01'453831.5
2017-Feb-16 05:00N 49°18' W 134°36'453995.5 340 / 18988.7 6.6 5.7
2017-Feb-16 04:32N 49°18' W 123°01'457838.3
2017-Feb-16 04:00N 49°18' W 134°42'4571004.7 360 / 19988.2 6.4 6.0
2017-Feb-16 03:32N 49°18' W 123°01'457837.9
2017-Feb-16 03:00N 49°18' W 134°42'4571004.1 010 / 17987.9 6.9 6.3
2017-Feb-16 02:32N 49°18' W 123°01'457838.3
2017-Feb-16 02:00N 49°18' W 134°42'4571004.7 360 / 13988.6 7.1 6.5
2017-Feb-16 01:32N 49°18' W 123°01'457837.9
2017-Feb-16 01:00N 49°18' W 134°42'4571003.5 010 / 12989.0 6.7 5.9
2017-Feb-16 00:32N 49°18' W 123°01'457838.7
2017-Feb-16 00:00N 49°18' W 134°42'4571003.5 010 / 9989.9 7.0 6.4
2017-Feb-15 23:32N 49°18' W 123°01'457838.7
2017-Feb-15 23:00N 49°18' W 134°42'457905.2 020 / 11990.7 6.8 6.0
2017-Feb-15 22:29N 49°18' W 123°01'457922.4
2017-Feb-15 22:00N 49°18' W 134°42'4571004.7 040 / 9992.2 7.1 6.4
2017-Feb-15 21:32N 49°18' W 123°01'457837.9
2017-Feb-15 21:00N 49°18' W 134°42'4571004.1 050 / 9992.4 7.1 6.3
2017-Feb-15 20:32N 49°18' W 123°01'457838.3
2017-Feb-15 20:00N 49°18' W 134°42'4571004.1 100 / 5993.7 7.3 6.2
2017-Feb-15 19:32N 49°18' W 123°01'457838.3
2017-Feb-15 19:00N 49°18' W 134°42'4571004.1 080 / 6994.3 7.2 6.6
2017-Feb-15 18:32N 49°18' W 123°01'465852.6
2017-Feb-15 18:00N 49°18' W 134°54'4651020.7 140 / 4994.9 7.3 6.9
2017-Feb-15 17:32N 49°18' W 123°01'476874.6
2017-Feb-15 17:00N 49°18' W 135°12'4761047.1 050 / 7994.2 6.9 6.5
2017-Feb-15 16:32N 49°18' W 123°01'488895.7
2017-Feb-15 16:00N 49°18' W 135°30'4881072.2 100 / 5993.8 7.2 6.6
2017-Feb-15 15:32N 49°18' W 123°01'496910.5
2017-Feb-15 15:00N 49°18' W 135°42'4961089.4 110 / 1993.4 7.0 6.4
2017-Feb-15 14:32N 49°18' W 123°01'496910.5
2017-Feb-15 14:00N 49°18' W 135°42'4961090.1 330 / 5992.2 7.1 6.6
2017-Feb-15 13:32N 49°18' W 123°01'503923.6
2017-Feb-15 13:00N 49°24' W 135°54'5031105.6 310 / 5991.6 6.8 6.4
2017-Feb-15 12:32N 49°18' W 123°01'515945.6
2017-Feb-15 12:00N 49°24' W 136°12'5151132.0 270 / 6991.3 7.1 6.1
2017-Feb-15 11:32N 49°18' W 123°01'523959.4
2017-Feb-15 11:00N 49°24' W 136°24'5231148.5 270 / 6990.3 7.4 5.7
2017-Feb-15 10:32N 49°18' W 123°01'535981.4
2017-Feb-15 10:00N 49°24' W 136°42'5351175.0 280 / 4989.5 7.4 6.7
2017-Feb-15 09:32N 49°18' W 123°01'535980.9
2017-Feb-15 09:00N 49°24' W 136°42'5351175.0 280 / 9988.7 8.0 7.3
2017-Feb-15 08:32N 49°18' W 123°01'539988.1
2017-Feb-15 08:00N 49°24' W 136°48'5391184.3 260 / 9988.2 7.4 7.0
2017-Feb-15 07:32N 49°18' W 123°01'5501008.3
2017-Feb-15 07:00N 49°30' W 137°06'5501207.6 280 / 4987.9 6.9 6.5
2017-Feb-15 06:32N 49°18' W 123°01'5581023.6
2017-Feb-15 06:00N 49°30' W 137°18'5581224.7 270 / 6987.5 6.8 6.4
2017-Feb-15 05:32N 49°18' W 123°01'5691045.1
2017-Feb-15 05:00N 49°30' W 137°36'5691251.2 250 / 5987.1 6.8 6.4
2017-Feb-15 04:32N 49°18' W 123°01'5731051.7
2017-Feb-15 04:00N 49°30' W 137°42'5731259.0 200 / 11986.7 7.5 7.1
2017-Feb-15 03:32N 49°18' W 123°01'5731052.3
2017-Feb-15 03:00N 49°30' W 137°42'5731259.8 200 / 14986.2 7.7 7.3
2017-Feb-15 02:32N 49°18' W 123°01'5811066.1
2017-Feb-15 02:00N 49°30' W 137°54'5811149.9 190 / 16985.6 7.7 7.3
2017-Feb-15 01:29N 49°18' W 123°01'5931198.1
2017-Feb-15 01:00N 49°30' W 138°12'5931173.7 200 / 17985.1 7.9 7.2
2017-Feb-15 00:29N 49°18' W 123°01'6041221.1
2017-Feb-15 00:00N 49°30' W 138°30'6041327.6 190 / 19984.3 7.8 7.3
2017-Feb-14 23:32N 49°18' W 123°01'6121123.9
2017-Feb-14 23:00N 49°30' W 138°42'6121345.6 200 / 21983.6 8.1 7.5
2017-Feb-14 22:32N 49°18' W 123°01'6241144.9
2017-Feb-14 22:00N 49°30' W 139°00'6241370.5 190 / 22983.1 8.2 7.5
2017-Feb-14 21:32N 49°18' W 123°01'6361166.9
2017-Feb-14 21:00N 49°30' W 139°18'6361396.2 180 / 23982.7 8.2 7.4
2017-Feb-14 20:32N 49°18' W 123°01'6431181.3
2017-Feb-14 20:00N 49°30' W 139°30'6431415.1 190 / 23982.2 8.1 7.5
2017-Feb-14 19:32N 49°18' W 123°01'6551201.6
2017-Feb-14 19:00N 49°30' W 139°48'6551440.0 180 / 24982.0 8.0 7.6
2017-Feb-14 18:32N 49°18' W 123°01'6631216.5
2017-Feb-14 18:00N 49°30' W 140°00'6631312.8 180 / 25981.6 8.0 7.6
2017-Feb-14 17:29N 49°18' W 123°01'6751363.0
2017-Feb-14 17:00N 49°30' W 140°18'   170 / 25981.3 7.8 7.4

Dump ship's entire track history